BAW173 EGLL-KJFK
Flight info
| Callsign | BAW173 |
|---|---|
| Flight time | 7h 13m |
| Altitude | 34000 |
| Route | ULTIB T420 TNT UL28 PENIL M144 BAGSO DCT NEBIN/M083F360 NATE BUDAR/N0475F360 N446A MIILS/N0478F380 DCT ENE PARCH4 |
| Aircraft | B77W/H-SDE1E2E3FGHIJ2J3J4J5M1RWXY/LB1D1 |
Departure
| Time | 2026-05-09 10:53 |
|---|---|
| Airport | London Heathrow Airport (EGLL) |
Arrival
| Time | 2026-05-09 18:06 |
|---|---|
| Airport | John F. Kennedy International Airport (KJFK) |
| Time | Latitude | Longitude | Altitude | Speed | Heading |
|---|---|---|---|---|---|
| 2026-05-09 08:56 | 51.47315 | -0.48235 | 91 ft | 0 kts | 90° |
| 2026-05-09 10:39 | 51.47314 | -0.48265 | 91 ft | 4 kts | 90° |
| 2026-05-09 10:39 | 51.47314 | -0.48301 | 91 ft | 2 kts | 90° |
| 2026-05-09 10:39 | 51.47318 | -0.48340 | 90 ft | 4 kts | 124° |
| 2026-05-09 10:39 | 51.47336 | -0.48359 | 93 ft | 3 kts | 180° |
| 2026-05-09 10:40 | 51.47362 | -0.48359 | 92 ft | 4 kts | 180° |
| 2026-05-09 10:40 | 51.47370 | -0.48359 | 92 ft | 0 kts | 180° |
| 2026-05-09 10:46 | 51.47363 | -0.48359 | 92 ft | 7 kts | 180° |
| 2026-05-09 10:46 | 51.47281 | -0.48358 | 93 ft | 8 kts | 179° |
| 2026-05-09 10:46 | 51.47224 | -0.48356 | 94 ft | 8 kts | 179° |
| 2026-05-09 10:47 | 51.47168 | -0.48355 | 94 ft | 8 kts | 179° |
| 2026-05-09 10:47 | 51.47111 | -0.48354 | 94 ft | 8 kts | 179° |
| 2026-05-09 10:47 | 51.47055 | -0.48353 | 94 ft | 8 kts | 180° |
| 2026-05-09 10:47 | 51.46998 | -0.48353 | 93 ft | 8 kts | 180° |
| 2026-05-09 10:48 | 51.46942 | -0.48352 | 91 ft | 8 kts | 181° |
| 2026-05-09 10:48 | 51.46885 | -0.48353 | 91 ft | 8 kts | 180° |
| 2026-05-09 10:48 | 51.46829 | -0.48352 | 91 ft | 8 kts | 179° |
| 2026-05-09 10:48 | 51.46772 | -0.48353 | 91 ft | 8 kts | 186° |
| 2026-05-09 10:49 | 51.46741 | -0.48420 | 92 ft | 8 kts | 266° |
| 2026-05-09 10:49 | 51.46741 | -0.48515 | 91 ft | 9 kts | 269° |
| 2026-05-09 10:49 | 51.46740 | -0.48610 | 91 ft | 9 kts | 269° |
| 2026-05-09 10:49 | 51.46734 | -0.48704 | 92 ft | 9 kts | 249° |
| 2026-05-09 10:50 | 51.46683 | -0.48741 | 95 ft | 9 kts | 182° |
| 2026-05-09 10:50 | 51.46625 | -0.48756 | 93 ft | 8 kts | 194° |
| 2026-05-09 10:50 | 51.46621 | -0.48758 | 93 ft | 0 kts | 195° |
| 2026-05-09 10:51 | 51.46607 | -0.48763 | 94 ft | 7 kts | 195° |
| 2026-05-09 10:51 | 51.46551 | -0.48782 | 94 ft | 8 kts | 183° |
| 2026-05-09 10:51 | 51.46498 | -0.48751 | 93 ft | 8 kts | 138° |
| 2026-05-09 10:51 | 51.46479 | -0.48669 | 94 ft | 8 kts | 91° |
| 2026-05-09 10:52 | 51.46479 | -0.48647 | 94 ft | 0 kts | 89° |
| 2026-05-09 10:52 | 51.46481 | -0.48408 | 91 ft | 54 kts | 90° |
| 2026-05-09 10:53 | 51.46483 | -0.47398 | 94 ft | 125 kts | 90° |
| 2026-05-09 10:53 | 51.46484 | -0.45681 | 100 ft | 178 kts | 90° |
| 2026-05-09 10:53 | 51.46503 | -0.43650 | 635 ft | 183 kts | 88° |
| 2026-05-09 10:53 | 51.46654 | -0.41558 | 1058 ft | 201 kts | 73° |
| 2026-05-09 10:54 | 51.47260 | -0.39501 | 1497 ft | 213 kts | 56° |
| 2026-05-09 10:54 | 51.48208 | -0.37554 | 1856 ft | 231 kts | 52° |
| 2026-05-09 10:54 | 51.49258 | -0.35515 | 2452 ft | 240 kts | 52° |
| 2026-05-09 10:54 | 51.50352 | -0.33416 | 3110 ft | 249 kts | 52° |
| 2026-05-09 10:55 | 51.51478 | -0.31266 | 3860 ft | 254 kts | 52° |
| 2026-05-09 10:55 | 51.52537 | -0.29026 | 4562 ft | 253 kts | 64° |
| 2026-05-09 10:55 | 51.53129 | -0.26338 | 5135 ft | 257 kts | 75° |
| 2026-05-09 10:55 | 51.53669 | -0.23604 | 5763 ft | 255 kts | 72° |
| 2026-05-09 10:56 | 51.54246 | -0.20892 | 5999 ft | 258 kts | 69° |
| 2026-05-09 10:56 | 51.55319 | -0.18565 | 6019 ft | 268 kts | 35° |
| 2026-05-09 10:56 | 51.57097 | -0.17606 | 6038 ft | 277 kts | 0° |
| 2026-05-09 10:56 | 51.58930 | -0.18448 | 6042 ft | 280 kts | 326° |
| 2026-05-09 10:57 | 51.60365 | -0.20537 | 6048 ft | 280 kts | 317° |
| 2026-05-09 10:57 | 51.61859 | -0.22596 | 6067 ft | 285 kts | 324° |
| 2026-05-09 10:57 | 51.63441 | -0.24521 | 6051 ft | 285 kts | 322° |
| 2026-05-09 10:57 | 51.65002 | -0.26461 | 6052 ft | 281 kts | 325° |
| 2026-05-09 10:58 | 51.66591 | -0.28224 | 6072 ft | 276 kts | 328° |
| 2026-05-09 10:58 | 51.68208 | -0.29886 | 6415 ft | 277 kts | 329° |
| 2026-05-09 10:58 | 51.69852 | -0.31520 | 7143 ft | 278 kts | 329° |
| 2026-05-09 10:58 | 51.71519 | -0.33152 | 7785 ft | 283 kts | 329° |
| 2026-05-09 10:59 | 51.73207 | -0.34789 | 8545 ft | 283 kts | 329° |
| 2026-05-09 10:59 | 51.74897 | -0.36417 | 9319 ft | 284 kts | 328° |
| 2026-05-09 10:59 | 51.76603 | -0.38058 | 10040 ft | 286 kts | 328° |
| 2026-05-09 10:59 | 51.78327 | -0.39716 | 10555 ft | 294 kts | 328° |
| 2026-05-09 11:00 | 51.80174 | -0.41495 | 10739 ft | 317 kts | 328° |
| 2026-05-09 11:00 | 51.81457 | -0.42736 | 10850 ft | 332 kts | 328° |
| 2026-05-09 11:00 | 51.84201 | -0.45412 | 11145 ft | 362 kts | 328° |
| 2026-05-09 11:00 | 51.86386 | -0.47548 | 11711 ft | 372 kts | 327° |
| 2026-05-09 11:01 | 51.87884 | -0.49012 | 12124 ft | 376 kts | 328° |
| 2026-05-09 11:01 | 51.90145 | -0.51225 | 12167 ft | 381 kts | 328° |
| 2026-05-09 11:01 | 51.92418 | -0.53453 | 12951 ft | 383 kts | 328° |
| 2026-05-09 11:01 | 51.94702 | -0.55693 | 14050 ft | 382 kts | 327° |
| 2026-05-09 11:02 | 51.96985 | -0.57924 | 14879 ft | 386 kts | 327° |
| 2026-05-09 11:02 | 51.99321 | -0.60203 | 15504 ft | 396 kts | 327° |
| 2026-05-09 11:02 | 52.01696 | -0.62521 | 16200 ft | 402 kts | 328° |
| 2026-05-09 11:02 | 52.04111 | -0.64880 | 16978 ft | 407 kts | 328° |
| 2026-05-09 11:03 | 52.06551 | -0.67268 | 17778 ft | 412 kts | 327° |
| 2026-05-09 11:03 | 52.09019 | -0.69688 | 18512 ft | 417 kts | 327° |
| 2026-05-09 11:03 | 52.11519 | -0.72142 | 19140 ft | 423 kts | 327° |
| 2026-05-09 11:03 | 52.14051 | -0.74634 | 19755 ft | 428 kts | 327° |
| 2026-05-09 11:04 | 52.16615 | -0.77173 | 20374 ft | 434 kts | 327° |
| 2026-05-09 11:04 | 52.19201 | -0.79739 | 20990 ft | 439 kts | 327° |
| 2026-05-09 11:04 | 52.21827 | -0.82345 | 21591 ft | 444 kts | 327° |
| 2026-05-09 11:04 | 52.24482 | -0.84985 | 22182 ft | 449 kts | 327° |
| 2026-05-09 11:05 | 52.27166 | -0.87652 | 22771 ft | 455 kts | 327° |
| 2026-05-09 11:05 | 52.29879 | -0.90343 | 23395 ft | 459 kts | 326° |
| 2026-05-09 11:05 | 52.32621 | -0.93064 | 23966 ft | 463 kts | 326° |
| 2026-05-09 11:05 | 52.35381 | -0.95807 | 24438 ft | 467 kts | 326° |
| 2026-05-09 11:06 | 52.38177 | -0.98589 | 24894 ft | 472 kts | 326° |
| 2026-05-09 11:06 | 52.40991 | -1.01394 | 25383 ft | 476 kts | 326° |
| 2026-05-09 11:06 | 52.43835 | -1.04232 | 25833 ft | 480 kts | 326° |
| 2026-05-09 11:06 | 52.46697 | -1.07095 | 26261 ft | 485 kts | 326° |
| 2026-05-09 11:07 | 52.49584 | -1.09990 | 26672 ft | 489 kts | 326° |
| 2026-05-09 11:07 | 52.52495 | -1.12934 | 27077 ft | 493 kts | 325° |
| 2026-05-09 11:07 | 52.55419 | -1.15909 | 27535 ft | 496 kts | 325° |
| 2026-05-09 11:07 | 52.58372 | -1.18909 | 27962 ft | 500 kts | 325° |
| 2026-05-09 11:08 | 52.61345 | -1.21921 | 28319 ft | 504 kts | 325° |
| 2026-05-09 11:08 | 52.64340 | -1.24954 | 28678 ft | 508 kts | 325° |
| 2026-05-09 11:08 | 52.67365 | -1.28021 | 29025 ft | 512 kts | 325° |
| 2026-05-09 11:08 | 52.70401 | -1.31109 | 29422 ft | 514 kts | 325° |
| 2026-05-09 11:09 | 52.73448 | -1.34210 | 29922 ft | 514 kts | 325° |
| 2026-05-09 11:09 | 52.76483 | -1.37300 | 30479 ft | 513 kts | 324° |
| 2026-05-09 11:09 | 52.79509 | -1.40384 | 31056 ft | 509 kts | 324° |
| 2026-05-09 11:09 | 52.82516 | -1.43454 | 31521 ft | 508 kts | 324° |
| 2026-05-09 11:10 | 52.85524 | -1.46533 | 31854 ft | 509 kts | 324° |
| 2026-05-09 11:10 | 52.88534 | -1.49620 | 32203 ft | 510 kts | 324° |
| 2026-05-09 11:10 | 52.91548 | -1.52714 | 32591 ft | 510 kts | 324° |
| 2026-05-09 11:10 | 52.94561 | -1.55814 | 32902 ft | 512 kts | 324° |
| 2026-05-09 11:11 | 52.97592 | -1.58936 | 33261 ft | 511 kts | 324° |
| 2026-05-09 11:11 | 53.00611 | -1.62049 | 33685 ft | 510 kts | 324° |
| 2026-05-09 11:11 | 53.03624 | -1.65161 | 34152 ft | 508 kts | 324° |
| 2026-05-09 11:12 | 53.09656 | -1.71422 | 34167 ft | 512 kts | 324° |
| 2026-05-09 11:12 | 53.15658 | -1.77678 | 34154 ft | 507 kts | 324° |
| 2026-05-09 11:13 | 53.21462 | -1.84257 | 34139 ft | 499 kts | 313° |
| 2026-05-09 11:13 | 53.25870 | -1.92959 | 34193 ft | 486 kts | 296° |
| 2026-05-09 11:14 | 53.28874 | -2.02939 | 34189 ft | 479 kts | 289° |
| 2026-05-09 11:14 | 53.31777 | -2.12972 | 34171 ft | 481 kts | 290° |
| 2026-05-09 11:15 | 53.34752 | -2.23001 | 34183 ft | 481 kts | 290° |
| 2026-05-09 11:15 | 53.37172 | -2.33336 | 34207 ft | 474 kts | 281° |
| 2026-05-09 11:16 | 53.39122 | -2.43893 | 34185 ft | 475 kts | 281° |
| 2026-05-09 11:16 | 53.41091 | -2.54461 | 34181 ft | 476 kts | 281° |
| 2026-05-09 11:17 | 53.43087 | -2.65035 | 34188 ft | 477 kts | 281° |
| 2026-05-09 11:17 | 53.45087 | -2.75653 | 34173 ft | 477 kts | 281° |
| 2026-05-09 11:18 | 53.47076 | -2.86272 | 34174 ft | 477 kts | 281° |
| 2026-05-09 11:18 | 53.49043 | -2.96894 | 34173 ft | 476 kts | 281° |
| 2026-05-09 11:19 | 53.50982 | -3.07523 | 34176 ft | 475 kts | 281° |
| 2026-05-09 11:19 | 53.52911 | -3.18150 | 34185 ft | 475 kts | 281° |
| 2026-05-09 11:20 | 53.54832 | -3.28777 | 34181 ft | 475 kts | 281° |
| 2026-05-09 11:20 | 53.56744 | -3.39399 | 34182 ft | 475 kts | 281° |
| 2026-05-09 11:21 | 53.58486 | -3.49119 | 34180 ft | 474 kts | 281° |
| 2026-05-09 11:21 | 53.59846 | -3.56648 | 34186 ft | 474 kts | 281° |
| 2026-05-09 11:22 | 53.61070 | -3.63592 | 34214 ft | 471 kts | 279° |
| 2026-05-09 11:22 | 53.61967 | -3.71041 | 34187 ft | 463 kts | 269° |
| 2026-05-09 11:23 | 53.62246 | -3.80939 | 34185 ft | 461 kts | 267° |
| 2026-05-09 11:23 | 53.62614 | -3.90430 | 34189 ft | 463 kts | 268° |
| 2026-05-09 11:24 | 53.63071 | -4.01236 | 34203 ft | 463 kts | 268° |
| 2026-05-09 11:24 | 53.63491 | -4.12058 | 34191 ft | 463 kts | 268° |
| 2026-05-09 11:25 | 53.63896 | -4.22893 | 34205 ft | 463 kts | 268° |
| 2026-05-09 11:25 | 53.64294 | -4.33717 | 34201 ft | 462 kts | 268° |
| 2026-05-09 11:26 | 53.64676 | -4.44520 | 34189 ft | 461 kts | 268° |
| 2026-05-09 11:26 | 53.65047 | -4.55319 | 34195 ft | 460 kts | 268° |
| 2026-05-09 11:27 | 53.65411 | -4.66078 | 34218 ft | 459 kts | 268° |
| 2026-05-09 11:27 | 53.65768 | -4.76812 | 34203 ft | 458 kts | 269° |
| 2026-05-09 11:28 | 53.66114 | -4.87509 | 34211 ft | 456 kts | 269° |
| 2026-05-09 11:28 | 53.66466 | -4.98160 | 34213 ft | 454 kts | 269° |
| 2026-05-09 11:29 | 53.66812 | -5.08766 | 34222 ft | 453 kts | 269° |
| 2026-05-09 11:29 | 53.67141 | -5.19374 | 34222 ft | 453 kts | 268° |
| 2026-05-09 11:30 | 53.67443 | -5.29983 | 34230 ft | 453 kts | 269° |
| 2026-05-09 11:30 | 53.67742 | -5.40599 | 34228 ft | 453 kts | 269° |
| 2026-05-09 11:31 | 53.68030 | -5.51192 | 34231 ft | 453 kts | 269° |
| 2026-05-09 11:31 | 53.68255 | -5.61815 | 34228 ft | 453 kts | 268° |
| 2026-05-09 11:32 | 53.68445 | -5.72423 | 34226 ft | 453 kts | 268° |
| 2026-05-09 11:32 | 53.68631 | -5.83041 | 34230 ft | 453 kts | 268° |
| 2026-05-09 11:33 | 53.68814 | -5.93647 | 34234 ft | 453 kts | 268° |
| 2026-05-09 11:33 | 53.69076 | -6.09599 | 34239 ft | 453 kts | 268° |
| 2026-05-09 11:34 | 53.69238 | -6.20211 | 34242 ft | 453 kts | 268° |
| 2026-05-09 11:34 | 53.69391 | -6.30844 | 34247 ft | 453 kts | 268° |
| 2026-05-09 11:35 | 53.69535 | -6.41464 | 34242 ft | 453 kts | 268° |
| 2026-05-09 11:35 | 53.69669 | -6.52084 | 34246 ft | 453 kts | 268° |
| 2026-05-09 11:36 | 53.69795 | -6.62702 | 34250 ft | 452 kts | 268° |
| 2026-05-09 11:36 | 53.69909 | -6.73312 | 34249 ft | 452 kts | 268° |
| 2026-05-09 11:37 | 53.70014 | -6.83923 | 34249 ft | 452 kts | 268° |
| 2026-05-09 11:37 | 53.70111 | -6.94521 | 34255 ft | 452 kts | 268° |
| 2026-05-09 11:38 | 53.70198 | -7.05118 | 34250 ft | 452 kts | 268° |
| 2026-05-09 11:38 | 53.70277 | -7.15728 | 34258 ft | 452 kts | 268° |
| 2026-05-09 11:39 | 53.70344 | -7.26331 | 34257 ft | 452 kts | 268° |
| 2026-05-09 11:40 | 53.70429 | -7.42230 | 34256 ft | 452 kts | 268° |
| 2026-05-09 11:40 | 53.70474 | -7.52850 | 34262 ft | 452 kts | 268° |
| 2026-05-09 11:41 | 53.70509 | -7.63446 | 34266 ft | 452 kts | 268° |
| 2026-05-09 11:41 | 53.70532 | -7.72259 | 34267 ft | 452 kts | 268° |
| 2026-05-09 11:42 | 53.70549 | -7.82868 | 34273 ft | 452 kts | 268° |
| 2026-05-09 11:42 | 53.70559 | -7.93501 | 34269 ft | 452 kts | 268° |
| 2026-05-09 11:43 | 53.70559 | -8.04100 | 34267 ft | 452 kts | 268° |
| 2026-05-09 11:43 | 53.70550 | -8.14706 | 34271 ft | 452 kts | 268° |
| 2026-05-09 11:44 | 53.70530 | -8.25312 | 34273 ft | 451 kts | 267° |
| 2026-05-09 11:44 | 53.70501 | -8.35903 | 34298 ft | 451 kts | 268° |
| 2026-05-09 11:45 | 53.70463 | -8.46482 | 34281 ft | 450 kts | 268° |
| 2026-05-09 11:45 | 53.70417 | -8.57041 | 34283 ft | 449 kts | 268° |
| 2026-05-09 11:46 | 53.70361 | -8.67558 | 34287 ft | 448 kts | 268° |
| 2026-05-09 11:46 | 53.70296 | -8.78067 | 34289 ft | 447 kts | 268° |
| 2026-05-09 11:47 | 53.70220 | -8.88551 | 34295 ft | 447 kts | 268° |
| 2026-05-09 11:47 | 53.70137 | -8.99060 | 34295 ft | 448 kts | 268° |
| 2026-05-09 11:48 | 53.70045 | -9.09575 | 34300 ft | 449 kts | 268° |
| 2026-05-09 11:48 | 53.69943 | -9.20114 | 34306 ft | 450 kts | 268° |
| 2026-05-09 11:49 | 53.69831 | -9.30673 | 34308 ft | 450 kts | 268° |
| 2026-05-09 11:49 | 53.69710 | -9.41229 | 34320 ft | 450 kts | 268° |
| 2026-05-09 11:50 | 53.69580 | -9.51789 | 34322 ft | 449 kts | 268° |
| 2026-05-09 11:50 | 53.69442 | -9.62261 | 34320 ft | 449 kts | 268° |
| 2026-05-09 11:51 | 53.69294 | -9.72777 | 34325 ft | 448 kts | 268° |
| 2026-05-09 11:51 | 53.69136 | -9.83283 | 34324 ft | 448 kts | 268° |
| 2026-05-09 11:52 | 53.69002 | -9.91726 | 34341 ft | 448 kts | 268° |
| 2026-05-09 11:52 | 53.68855 | -10.00135 | 34346 ft | 450 kts | 268° |
| 2026-05-09 11:53 | 53.68698 | -10.09415 | 34346 ft | 453 kts | 268° |
| 2026-05-09 11:53 | 53.68558 | -10.17278 | 34338 ft | 454 kts | 268° |
| 2026-05-09 11:54 | 53.68415 | -10.25009 | 34336 ft | 454 kts | 268° |
| 2026-05-09 11:54 | 53.68236 | -10.34168 | 34336 ft | 453 kts | 268° |
| 2026-05-09 11:55 | 53.68032 | -10.44507 | 34338 ft | 452 kts | 268° |
| 2026-05-09 11:56 | 53.67347 | -10.76132 | 34352 ft | 453 kts | 269° |
| 2026-05-09 11:57 | 53.67097 | -10.86741 | 34359 ft | 453 kts | 269° |
| 2026-05-09 11:57 | 53.66836 | -10.97373 | 34359 ft | 454 kts | 269° |
| 2026-05-09 11:58 | 53.66566 | -11.07973 | 34368 ft | 452 kts | 269° |
| 2026-05-09 11:58 | 53.66288 | -11.18571 | 34359 ft | 452 kts | 269° |
| 2026-05-09 11:59 | 53.66002 | -11.29140 | 34367 ft | 451 kts | 268° |
| 2026-05-09 11:59 | 53.65704 | -11.39715 | 34366 ft | 452 kts | 269° |
| 2026-05-09 12:00 | 53.65399 | -11.50252 | 34366 ft | 450 kts | 268° |
| 2026-05-09 12:00 | 53.65082 | -11.60968 | 34378 ft | 464 kts | 269° |
| 2026-05-09 12:01 | 53.64752 | -11.71756 | 34373 ft | 463 kts | 269° |
| 2026-05-09 12:01 | 53.64409 | -11.82565 | 34377 ft | 460 kts | 269° |
| 2026-05-09 12:02 | 53.64056 | -11.93375 | 34367 ft | 459 kts | 269° |
| 2026-05-09 12:02 | 53.63697 | -12.04115 | 34365 ft | 459 kts | 270° |
| 2026-05-09 12:03 | 53.63327 | -12.14959 | 34409 ft | 469 kts | 270° |
| 2026-05-09 12:03 | 53.62939 | -12.26024 | 34392 ft | 474 kts | 270° |
| 2026-05-09 12:04 | 53.62539 | -12.37003 | 34389 ft | 471 kts | 269° |
| 2026-05-09 12:04 | 53.62130 | -12.47984 | 34398 ft | 469 kts | 268° |
| 2026-05-09 12:05 | 53.61712 | -12.58949 | 34386 ft | 468 kts | 269° |
| 2026-05-09 12:05 | 53.61287 | -12.69902 | 34399 ft | 469 kts | 269° |
| 2026-05-09 12:06 | 53.60851 | -12.80885 | 34411 ft | 471 kts | 268° |
| 2026-05-09 12:06 | 53.60401 | -12.91907 | 34403 ft | 473 kts | 269° |
| 2026-05-09 12:07 | 53.59940 | -13.02959 | 34402 ft | 474 kts | 269° |
| 2026-05-09 12:07 | 53.59470 | -13.14023 | 34406 ft | 474 kts | 269° |
| 2026-05-09 12:08 | 53.58987 | -13.25091 | 34414 ft | 474 kts | 269° |
| 2026-05-09 12:08 | 53.58493 | -13.36170 | 34412 ft | 474 kts | 269° |
| 2026-05-09 12:09 | 53.57991 | -13.47223 | 34421 ft | 474 kts | 268° |
| 2026-05-09 12:09 | 53.57478 | -13.58283 | 34419 ft | 474 kts | 268° |
| 2026-05-09 12:10 | 53.56424 | -13.80364 | 34429 ft | 474 kts | 269° |
| 2026-05-09 12:11 | 53.55881 | -13.91401 | 34430 ft | 474 kts | 268° |
| 2026-05-09 12:11 | 53.55328 | -14.02444 | 34433 ft | 474 kts | 268° |
| 2026-05-09 12:12 | 53.54765 | -14.13495 | 34414 ft | 474 kts | 268° |
| 2026-05-09 12:12 | 53.54191 | -14.24530 | 34429 ft | 474 kts | 268° |
| 2026-05-09 12:13 | 53.53607 | -14.35582 | 34441 ft | 474 kts | 268° |
| 2026-05-09 12:13 | 53.53012 | -14.46633 | 34434 ft | 475 kts | 267° |
| 2026-05-09 12:14 | 53.52408 | -14.57673 | 34424 ft | 475 kts | 267° |
| 2026-05-09 12:14 | 53.51793 | -14.68722 | 34433 ft | 475 kts | 268° |
| 2026-05-09 12:15 | 53.51169 | -14.79758 | 34438 ft | 475 kts | 268° |
| 2026-05-09 12:15 | 53.50536 | -14.90800 | 34436 ft | 475 kts | 267° |
| 2026-05-09 12:16 | 53.49989 | -15.01878 | 34434 ft | 474 kts | 272° |
| 2026-05-09 12:16 | 53.50294 | -15.12862 | 34447 ft | 468 kts | 283° |
| 2026-05-09 12:16 | 53.51203 | -15.18042 | 34435 ft | 458 kts | 295° |
| 2026-05-09 12:17 | 53.52236 | -15.23121 | 34439 ft | 464 kts | 285° |
| 2026-05-09 12:17 | 53.52652 | -15.34098 | 34458 ft | 477 kts | 275° |
| 2026-05-09 12:18 | 53.52657 | -15.45329 | 34466 ft | 483 kts | 275° |
| 2026-05-09 12:18 | 53.52745 | -15.56652 | 34465 ft | 485 kts | 276° |
| 2026-05-09 12:19 | 53.52906 | -15.67985 | 34454 ft | 485 kts | 276° |
| 2026-05-09 12:19 | 53.53078 | -15.79293 | 34462 ft | 484 kts | 277° |
| 2026-05-09 12:20 | 53.53237 | -15.90599 | 34464 ft | 484 kts | 277° |
| 2026-05-09 12:20 | 53.53382 | -16.01899 | 34468 ft | 484 kts | 277° |
| 2026-05-09 12:21 | 53.53516 | -16.13202 | 34471 ft | 484 kts | 277° |
| 2026-05-09 12:21 | 53.53639 | -16.24512 | 34471 ft | 484 kts | 277° |
| 2026-05-09 12:22 | 53.53751 | -16.35751 | 34472 ft | 484 kts | 276° |
| 2026-05-09 12:22 | 53.53854 | -16.47079 | 34480 ft | 485 kts | 276° |
| 2026-05-09 12:23 | 53.53946 | -16.58421 | 34478 ft | 485 kts | 276° |
| 2026-05-09 12:23 | 53.54027 | -16.69819 | 34483 ft | 485 kts | 276° |
| 2026-05-09 12:24 | 53.54097 | -16.81181 | 34455 ft | 486 kts | 277° |
| 2026-05-09 12:24 | 53.54158 | -16.92468 | 34492 ft | 487 kts | 277° |
| 2026-05-09 12:25 | 53.54212 | -17.03883 | 34481 ft | 490 kts | 278° |
| 2026-05-09 12:25 | 53.54255 | -17.15364 | 34500 ft | 492 kts | 277° |
| 2026-05-09 12:26 | 53.54282 | -17.25028 | 34497 ft | 494 kts | 277° |
| 2026-05-09 12:26 | 53.54302 | -17.36600 | 34471 ft | 495 kts | 278° |
| 2026-05-09 12:27 | 53.54310 | -17.48180 | 34495 ft | 496 kts | 278° |
| 2026-05-09 12:27 | 53.54306 | -17.59794 | 34497 ft | 497 kts | 278° |
| 2026-05-09 12:28 | 53.54290 | -17.71413 | 34506 ft | 497 kts | 277° |
| 2026-05-09 12:28 | 53.54261 | -17.83032 | 34508 ft | 497 kts | 277° |
| 2026-05-09 12:29 | 53.54220 | -17.94638 | 34509 ft | 496 kts | 278° |
| 2026-05-09 12:29 | 53.54170 | -18.06184 | 34513 ft | 497 kts | 278° |
| 2026-05-09 12:30 | 53.54109 | -18.17810 | 34515 ft | 498 kts | 278° |
| 2026-05-09 12:30 | 53.53996 | -18.35300 | 34524 ft | 499 kts | 277° |
| 2026-05-09 12:31 | 53.53856 | -18.52811 | 34523 ft | 500 kts | 278° |
| 2026-05-09 12:32 | 53.53748 | -18.64500 | 34531 ft | 501 kts | 278° |
| 2026-05-09 12:32 | 53.53629 | -18.76210 | 34526 ft | 501 kts | 278° |
| 2026-05-09 12:33 | 53.53498 | -18.87929 | 34535 ft | 502 kts | 278° |
| 2026-05-09 12:33 | 53.53356 | -18.99659 | 34517 ft | 502 kts | 279° |
| 2026-05-09 12:34 | 53.53201 | -19.11394 | 34536 ft | 503 kts | 279° |
| 2026-05-09 12:34 | 53.53035 | -19.23179 | 34540 ft | 504 kts | 278° |
| 2026-05-09 12:35 | 53.52857 | -19.34959 | 34536 ft | 505 kts | 278° |
| 2026-05-09 12:35 | 53.52666 | -19.46762 | 34546 ft | 505 kts | 278° |
| 2026-05-09 12:36 | 53.52464 | -19.58550 | 34543 ft | 505 kts | 278° |
| 2026-05-09 12:36 | 53.52251 | -19.70352 | 34542 ft | 505 kts | 278° |
| 2026-05-09 12:37 | 53.52026 | -19.82159 | 34555 ft | 506 kts | 278° |
| 2026-05-09 12:37 | 53.51792 | -19.93980 | 34555 ft | 506 kts | 278° |
| 2026-05-09 12:38 | 53.51647 | -20.05766 | 34526 ft | 500 kts | 283° |
| 2026-05-09 12:38 | 53.52127 | -20.17321 | 34553 ft | 494 kts | 286° |
| 2026-05-09 12:39 | 53.52750 | -20.28826 | 34557 ft | 495 kts | 286° |
| 2026-05-09 12:39 | 53.53282 | -20.40370 | 34554 ft | 496 kts | 285° |
| 2026-05-09 12:40 | 53.53734 | -20.51929 | 34560 ft | 496 kts | 285° |
| 2026-05-09 12:40 | 53.54153 | -20.63489 | 34539 ft | 495 kts | 285° |
| 2026-05-09 12:41 | 53.54558 | -20.74948 | 34567 ft | 494 kts | 285° |
| 2026-05-09 12:41 | 53.54961 | -20.86495 | 34574 ft | 494 kts | 285° |
| 2026-05-09 12:42 | 53.55355 | -20.98033 | 34572 ft | 495 kts | 284° |
| 2026-05-09 12:42 | 53.55738 | -21.09593 | 34576 ft | 495 kts | 284° |
| 2026-05-09 12:43 | 53.56110 | -21.21150 | 34547 ft | 495 kts | 284° |
| 2026-05-09 12:43 | 53.56470 | -21.32716 | 34581 ft | 495 kts | 284° |
| 2026-05-09 12:44 | 53.56820 | -21.44288 | 34583 ft | 496 kts | 284° |
| 2026-05-09 12:44 | 53.57158 | -21.55875 | 34578 ft | 496 kts | 284° |
| 2026-05-09 12:45 | 53.57484 | -21.67453 | 34581 ft | 495 kts | 284° |
| 2026-05-09 12:45 | 53.57799 | -21.79010 | 34588 ft | 494 kts | 284° |
| 2026-05-09 12:46 | 53.58102 | -21.90558 | 34586 ft | 494 kts | 284° |
| 2026-05-09 12:46 | 53.58395 | -22.02091 | 34589 ft | 493 kts | 284° |
| 2026-05-09 12:47 | 53.58676 | -22.13618 | 34596 ft | 493 kts | 283° |
| 2026-05-09 12:47 | 53.58947 | -22.25149 | 34599 ft | 493 kts | 283° |
| 2026-05-09 12:48 | 53.59206 | -22.36676 | 34589 ft | 493 kts | 283° |
| 2026-05-09 12:48 | 53.59454 | -22.48210 | 34597 ft | 493 kts | 283° |
| 2026-05-09 12:49 | 53.59691 | -22.59754 | 34605 ft | 494 kts | 283° |
| 2026-05-09 12:49 | 53.59918 | -22.71310 | 34600 ft | 494 kts | 283° |
| 2026-05-09 12:50 | 53.60131 | -22.82872 | 34610 ft | 494 kts | 282° |
| 2026-05-09 12:50 | 53.60334 | -22.94414 | 34600 ft | 492 kts | 282° |
| 2026-05-09 12:51 | 53.60525 | -23.05927 | 34612 ft | 492 kts | 282° |
| 2026-05-09 12:51 | 53.60707 | -23.17444 | 34615 ft | 492 kts | 282° |
| 2026-05-09 12:52 | 53.60877 | -23.28963 | 34613 ft | 492 kts | 282° |
| 2026-05-09 12:52 | 53.61036 | -23.40484 | 34614 ft | 492 kts | 282° |
| 2026-05-09 12:53 | 53.61185 | -23.52023 | 34614 ft | 493 kts | 281° |
| 2026-05-09 12:53 | 53.61322 | -23.63556 | 34624 ft | 493 kts | 281° |
| 2026-05-09 12:54 | 53.61448 | -23.75120 | 34619 ft | 494 kts | 281° |
| 2026-05-09 12:54 | 53.61563 | -23.86708 | 34627 ft | 495 kts | 281° |
| 2026-05-09 12:55 | 53.61667 | -23.98311 | 34629 ft | 496 kts | 281° |
| 2026-05-09 12:55 | 53.61760 | -24.09924 | 34634 ft | 496 kts | 281° |
| 2026-05-09 12:56 | 53.61841 | -24.21540 | 34627 ft | 496 kts | 281° |
| 2026-05-09 12:56 | 53.61912 | -24.33168 | 34629 ft | 497 kts | 280° |
| 2026-05-09 12:57 | 53.61971 | -24.44802 | 34629 ft | 497 kts | 280° |
| 2026-05-09 12:57 | 53.62018 | -24.56457 | 34634 ft | 497 kts | 280° |
| 2026-05-09 12:58 | 53.62055 | -24.68105 | 34628 ft | 497 kts | 280° |
| 2026-05-09 12:58 | 53.62080 | -24.79742 | 34635 ft | 497 kts | 280° |
| 2026-05-09 12:59 | 53.62094 | -24.91388 | 34636 ft | 497 kts | 280° |
| 2026-05-09 12:59 | 53.62097 | -25.03027 | 34636 ft | 497 kts | 279° |
| 2026-05-09 13:00 | 53.62089 | -25.14690 | 34639 ft | 498 kts | 279° |
| 2026-05-09 13:00 | 53.62068 | -25.26323 | 34640 ft | 496 kts | 279° |
| 2026-05-09 13:01 | 53.62036 | -25.37931 | 34643 ft | 495 kts | 279° |
| 2026-05-09 13:01 | 53.61994 | -25.49525 | 34643 ft | 495 kts | 279° |
| 2026-05-09 13:02 | 53.61941 | -25.61116 | 34643 ft | 494 kts | 279° |
| 2026-05-09 13:02 | 53.61877 | -25.72697 | 34643 ft | 494 kts | 279° |
| 2026-05-09 13:03 | 53.61801 | -25.84265 | 34646 ft | 494 kts | 278° |
| 2026-05-09 13:03 | 53.61715 | -25.95847 | 34653 ft | 495 kts | 278° |
| 2026-05-09 13:04 | 53.61617 | -26.07435 | 34645 ft | 495 kts | 278° |
| 2026-05-09 13:04 | 53.61508 | -26.19036 | 34654 ft | 496 kts | 278° |
| 2026-05-09 13:05 | 53.61387 | -26.30666 | 34650 ft | 497 kts | 278° |
| 2026-05-09 13:05 | 53.61254 | -26.42278 | 34625 ft | 496 kts | 278° |
| 2026-05-09 13:06 | 53.61110 | -26.53890 | 34652 ft | 495 kts | 277° |
| 2026-05-09 13:06 | 53.60955 | -26.65487 | 34653 ft | 495 kts | 277° |
| 2026-05-09 13:07 | 53.60790 | -26.77058 | 34659 ft | 494 kts | 277° |
| 2026-05-09 13:07 | 53.60614 | -26.88619 | 34649 ft | 494 kts | 277° |
| 2026-05-09 13:08 | 53.60427 | -27.00173 | 34652 ft | 493 kts | 277° |
| 2026-05-09 13:08 | 53.60263 | -27.09766 | 34656 ft | 493 kts | 277° |
| 2026-05-09 13:09 | 53.60056 | -27.21313 | 34655 ft | 493 kts | 277° |
| 2026-05-09 13:09 | 53.59837 | -27.32852 | 34657 ft | 493 kts | 277° |
| 2026-05-09 13:10 | 53.59608 | -27.44407 | 34659 ft | 494 kts | 276° |
| 2026-05-09 13:10 | 53.59367 | -27.55961 | 34657 ft | 494 kts | 276° |
| 2026-05-09 13:11 | 53.59114 | -27.67524 | 34645 ft | 494 kts | 276° |
| 2026-05-09 13:11 | 53.58850 | -27.79049 | 34647 ft | 492 kts | 276° |
| 2026-05-09 13:12 | 53.58576 | -27.90540 | 34653 ft | 490 kts | 276° |
| 2026-05-09 13:12 | 53.58293 | -28.01996 | 34663 ft | 489 kts | 276° |
| 2026-05-09 13:13 | 53.58001 | -28.13406 | 34664 ft | 488 kts | 275° |
| 2026-05-09 13:13 | 53.57697 | -28.24822 | 34666 ft | 488 kts | 275° |
| 2026-05-09 13:14 | 53.57385 | -28.36151 | 34666 ft | 488 kts | 275° |
| 2026-05-09 13:16 | 53.56015 | -28.81894 | 34674 ft | 489 kts | 274° |
| 2026-05-09 13:16 | 53.55645 | -28.93327 | 34668 ft | 488 kts | 274° |
| 2026-05-09 13:17 | 53.55267 | -29.04643 | 34670 ft | 488 kts | 274° |
| 2026-05-09 13:17 | 53.54877 | -29.16020 | 34669 ft | 487 kts | 274° |
| 2026-05-09 13:18 | 53.54477 | -29.27379 | 34666 ft | 486 kts | 273° |
| 2026-05-09 13:18 | 53.54067 | -29.38703 | 34670 ft | 485 kts | 273° |
| 2026-05-09 13:19 | 53.53647 | -29.50037 | 34668 ft | 485 kts | 273° |
| 2026-05-09 13:19 | 53.53217 | -29.61351 | 34671 ft | 486 kts | 273° |
| 2026-05-09 13:20 | 53.52775 | -29.72690 | 34671 ft | 486 kts | 272° |
| 2026-05-09 13:20 | 53.52324 | -29.84006 | 34667 ft | 486 kts | 272° |
| 2026-05-09 13:21 | 53.51863 | -29.95346 | 34676 ft | 486 kts | 272° |
| 2026-05-09 13:21 | 53.51345 | -30.06691 | 34671 ft | 488 kts | 271° |
| 2026-05-09 13:22 | 53.50680 | -30.18019 | 34670 ft | 487 kts | 270° |
| 2026-05-09 13:22 | 53.49986 | -30.29339 | 34669 ft | 486 kts | 270° |
| 2026-05-09 13:23 | 53.48279 | -30.57510 | 34671 ft | 484 kts | 270° |
| 2026-05-09 13:24 | 53.47588 | -30.68743 | 34666 ft | 484 kts | 269° |
| 2026-05-09 13:24 | 53.46885 | -30.79980 | 34666 ft | 484 kts | 269° |
| 2026-05-09 13:25 | 53.46172 | -30.91196 | 34664 ft | 484 kts | 269° |
| 2026-05-09 13:26 | 53.45079 | -31.08037 | 34656 ft | 484 kts | 269° |
| 2026-05-09 13:26 | 53.44338 | -31.19269 | 34659 ft | 485 kts | 269° |
| 2026-05-09 13:27 | 53.43585 | -31.30509 | 34659 ft | 485 kts | 269° |
| 2026-05-09 13:27 | 53.42822 | -31.41746 | 34624 ft | 485 kts | 268° |
| 2026-05-09 13:28 | 53.42048 | -31.52961 | 34652 ft | 484 kts | 268° |
| 2026-05-09 13:28 | 53.41266 | -31.64153 | 34653 ft | 483 kts | 268° |
| 2026-05-09 13:29 | 53.40474 | -31.75333 | 34654 ft | 483 kts | 268° |
| 2026-05-09 13:29 | 53.39672 | -31.86505 | 34653 ft | 483 kts | 267° |
| 2026-05-09 13:30 | 53.38860 | -31.97667 | 34636 ft | 483 kts | 267° |
| 2026-05-09 13:30 | 53.38038 | -32.08822 | 34647 ft | 482 kts | 267° |
| 2026-05-09 13:31 | 53.37205 | -32.19979 | 34653 ft | 483 kts | 267° |
| 2026-05-09 13:31 | 53.36361 | -32.31132 | 34647 ft | 483 kts | 266° |
| 2026-05-09 13:32 | 53.35506 | -32.42296 | 34644 ft | 483 kts | 266° |
| 2026-05-09 13:32 | 53.34204 | -32.59028 | 34636 ft | 483 kts | 266° |
| 2026-05-09 13:33 | 53.33323 | -32.70174 | 34646 ft | 483 kts | 265° |
| 2026-05-09 13:33 | 53.32434 | -32.81289 | 34634 ft | 482 kts | 265° |
| 2026-05-09 13:34 | 53.31534 | -32.92409 | 34638 ft | 481 kts | 265° |
| 2026-05-09 13:34 | 53.30628 | -33.03471 | 34638 ft | 480 kts | 265° |
| 2026-05-09 13:35 | 53.29712 | -33.14524 | 34628 ft | 480 kts | 265° |
| 2026-05-09 13:35 | 53.28787 | -33.25558 | 34634 ft | 479 kts | 265° |
| 2026-05-09 13:36 | 53.27852 | -33.36593 | 34635 ft | 480 kts | 265° |
| 2026-05-09 13:36 | 53.26906 | -33.47623 | 34626 ft | 480 kts | 265° |
| 2026-05-09 13:37 | 53.25950 | -33.58652 | 34633 ft | 480 kts | 265° |
| 2026-05-09 13:37 | 53.24983 | -33.69682 | 34619 ft | 480 kts | 264° |
| 2026-05-09 13:38 | 53.24005 | -33.80713 | 34626 ft | 480 kts | 264° |
| 2026-05-09 13:38 | 53.23016 | -33.91754 | 34618 ft | 481 kts | 264° |
| 2026-05-09 13:39 | 53.22018 | -34.02779 | 34617 ft | 480 kts | 264° |
| 2026-05-09 13:39 | 53.21010 | -34.13785 | 34616 ft | 479 kts | 264° |
| 2026-05-09 13:40 | 53.19996 | -34.24752 | 34605 ft | 477 kts | 263° |
| 2026-05-09 13:40 | 53.18975 | -34.35669 | 34600 ft | 476 kts | 263° |
| 2026-05-09 13:41 | 53.17950 | -34.46538 | 34602 ft | 474 kts | 263° |
| 2026-05-09 13:41 | 53.16915 | -34.57398 | 34601 ft | 474 kts | 263° |
| 2026-05-09 13:42 | 53.15872 | -34.68225 | 34601 ft | 473 kts | 263° |
| 2026-05-09 13:42 | 53.14820 | -34.79047 | 34589 ft | 473 kts | 262° |
| 2026-05-09 13:43 | 53.13757 | -34.89866 | 34592 ft | 473 kts | 263° |
| 2026-05-09 13:43 | 53.12684 | -35.00688 | 34588 ft | 474 kts | 263° |
| 2026-05-09 13:44 | 53.11599 | -35.11519 | 34587 ft | 474 kts | 262° |
| 2026-05-09 13:44 | 53.10505 | -35.22339 | 34573 ft | 474 kts | 262° |
| 2026-05-09 13:45 | 53.09407 | -35.33099 | 34573 ft | 467 kts | 262° |
| 2026-05-09 13:45 | 53.08316 | -35.43687 | 34571 ft | 463 kts | 262° |
| 2026-05-09 13:46 | 53.07220 | -35.54221 | 34572 ft | 462 kts | 262° |
| 2026-05-09 13:46 | 53.06117 | -35.64763 | 34569 ft | 463 kts | 262° |
| 2026-05-09 13:47 | 53.04999 | -35.75326 | 34561 ft | 465 kts | 262° |
| 2026-05-09 13:47 | 53.03867 | -35.85930 | 34556 ft | 466 kts | 261° |
| 2026-05-09 13:48 | 53.02727 | -35.96523 | 34560 ft | 466 kts | 261° |
| 2026-05-09 13:48 | 53.01577 | -36.07094 | 34544 ft | 465 kts | 261° |
| 2026-05-09 13:49 | 53.00422 | -36.17642 | 34553 ft | 464 kts | 261° |
| 2026-05-09 13:49 | 52.99258 | -36.28175 | 34547 ft | 464 kts | 261° |
| 2026-05-09 13:50 | 52.98086 | -36.38690 | 34538 ft | 463 kts | 260° |
| 2026-05-09 13:50 | 52.96906 | -36.49181 | 34541 ft | 461 kts | 260° |
| 2026-05-09 13:51 | 52.95923 | -36.57861 | 34542 ft | 460 kts | 260° |
| 2026-05-09 13:51 | 52.94735 | -36.68270 | 34528 ft | 460 kts | 260° |
| 2026-05-09 13:52 | 52.93535 | -36.78697 | 34528 ft | 460 kts | 260° |
| 2026-05-09 13:52 | 52.92327 | -36.89120 | 34521 ft | 461 kts | 260° |
| 2026-05-09 13:53 | 52.91107 | -36.99544 | 34524 ft | 461 kts | 259° |
| 2026-05-09 13:53 | 52.89878 | -37.09970 | 34518 ft | 461 kts | 259° |
| 2026-05-09 13:54 | 52.88641 | -37.20373 | 34510 ft | 461 kts | 259° |
| 2026-05-09 13:54 | 52.87397 | -37.30761 | 34506 ft | 460 kts | 259° |
| 2026-05-09 13:55 | 52.86137 | -37.41218 | 34514 ft | 460 kts | 259° |
| 2026-05-09 13:55 | 52.84882 | -37.51525 | 34508 ft | 460 kts | 259° |
| 2026-05-09 13:56 | 52.83602 | -37.61958 | 34504 ft | 459 kts | 258° |
| 2026-05-09 13:56 | 52.82326 | -37.72296 | 34498 ft | 458 kts | 258° |
| 2026-05-09 13:57 | 52.81046 | -37.82580 | 34491 ft | 457 kts | 258° |
| 2026-05-09 13:57 | 52.79755 | -37.92869 | 34491 ft | 457 kts | 258° |
| 2026-05-09 13:58 | 52.78457 | -38.03149 | 34485 ft | 456 kts | 257° |
| 2026-05-09 13:58 | 52.77159 | -38.13343 | 34478 ft | 453 kts | 257° |
| 2026-05-09 13:59 | 52.75854 | -38.23516 | 34467 ft | 453 kts | 257° |
| 2026-05-09 13:59 | 52.74538 | -38.33700 | 34474 ft | 453 kts | 257° |
| 2026-05-09 14:00 | 52.73437 | -38.42162 | 34463 ft | 454 kts | 257° |
| 2026-05-09 14:00 | 52.71881 | -38.54055 | 34462 ft | 453 kts | 257° |
| 2026-05-09 14:01 | 52.70539 | -38.64226 | 34459 ft | 454 kts | 257° |
| 2026-05-09 14:01 | 52.69188 | -38.74385 | 34442 ft | 454 kts | 257° |
| 2026-05-09 14:02 | 52.67838 | -38.84479 | 34436 ft | 454 kts | 257° |
| 2026-05-09 14:02 | 52.66469 | -38.94628 | 34454 ft | 454 kts | 256° |
| 2026-05-09 14:03 | 52.65095 | -39.04759 | 34441 ft | 453 kts | 256° |
| 2026-05-09 14:03 | 52.63716 | -39.14854 | 34431 ft | 451 kts | 256° |
| 2026-05-09 14:04 | 52.62334 | -39.24902 | 34422 ft | 449 kts | 256° |
| 2026-05-09 14:04 | 52.60948 | -39.34906 | 34412 ft | 449 kts | 256° |
| 2026-05-09 14:05 | 52.59553 | -39.44914 | 34412 ft | 449 kts | 256° |
| 2026-05-09 14:05 | 52.58146 | -39.54935 | 34420 ft | 450 kts | 256° |
| 2026-05-09 14:06 | 52.56730 | -39.64962 | 34400 ft | 450 kts | 255° |
| 2026-05-09 14:06 | 52.55307 | -39.74971 | 34398 ft | 449 kts | 255° |
| 2026-05-09 14:07 | 52.53877 | -39.84970 | 34390 ft | 449 kts | 255° |
| 2026-05-09 14:07 | 52.52444 | -39.94935 | 34383 ft | 449 kts | 255° |
| 2026-05-09 14:08 | 52.50992 | -40.04890 | 34385 ft | 449 kts | 254° |
| 2026-05-09 14:08 | 52.49486 | -40.14824 | 34386 ft | 449 kts | 253° |
| 2026-05-09 14:09 | 52.47966 | -40.24764 | 34363 ft | 449 kts | 253° |
| 2026-05-09 14:09 | 52.46444 | -40.34681 | 34359 ft | 448 kts | 253° |
| 2026-05-09 14:10 | 52.44155 | -40.49535 | 34346 ft | 448 kts | 253° |
| 2026-05-09 14:11 | 52.42621 | -40.59427 | 34353 ft | 448 kts | 253° |
| 2026-05-09 14:11 | 52.41074 | -40.69330 | 34331 ft | 449 kts | 252° |
| 2026-05-09 14:12 | 52.39519 | -40.79230 | 34327 ft | 450 kts | 253° |
| 2026-05-09 14:12 | 52.37953 | -40.89139 | 34324 ft | 450 kts | 253° |
| 2026-05-09 14:13 | 52.36376 | -40.99056 | 34319 ft | 450 kts | 252° |
| 2026-05-09 14:15 | 52.29982 | -41.38681 | 34307 ft | 451 kts | 252° |
| 2026-05-09 14:15 | 52.28366 | -41.48550 | 34270 ft | 450 kts | 252° |
| 2026-05-09 14:16 | 52.26743 | -41.58410 | 34298 ft | 448 kts | 252° |
| 2026-05-09 14:16 | 52.25117 | -41.68228 | 34262 ft | 447 kts | 252° |
| 2026-05-09 14:17 | 52.23487 | -41.78010 | 34256 ft | 447 kts | 252° |
| 2026-05-09 14:17 | 52.21848 | -41.87792 | 34255 ft | 447 kts | 252° |
| 2026-05-09 14:18 | 52.20218 | -41.97465 | 34248 ft | 447 kts | 251° |
| 2026-05-09 14:18 | 52.18561 | -42.07246 | 34248 ft | 448 kts | 251° |
| 2026-05-09 14:19 | 52.16892 | -42.17038 | 34229 ft | 449 kts | 251° |
| 2026-05-09 14:19 | 52.15212 | -42.26843 | 34235 ft | 449 kts | 251° |
| 2026-05-09 14:20 | 52.13524 | -42.36636 | 34224 ft | 450 kts | 250° |
| 2026-05-09 14:20 | 52.11827 | -42.46432 | 34221 ft | 449 kts | 251° |
| 2026-05-09 14:21 | 52.09271 | -42.61086 | 34222 ft | 449 kts | 250° |
| 2026-05-09 14:21 | 52.07554 | -42.70853 | 34196 ft | 449 kts | 250° |
| 2026-05-09 14:22 | 52.05818 | -42.80679 | 34193 ft | 449 kts | 250° |
| 2026-05-09 14:22 | 52.04099 | -42.90363 | 34180 ft | 449 kts | 250° |
| 2026-05-09 14:23 | 52.02359 | -43.00108 | 34181 ft | 449 kts | 250° |
| 2026-05-09 14:23 | 52.00611 | -43.09841 | 34176 ft | 449 kts | 249° |
| 2026-05-09 14:24 | 51.98854 | -43.19577 | 34161 ft | 450 kts | 249° |
| 2026-05-09 14:24 | 51.97087 | -43.29314 | 34161 ft | 450 kts | 249° |
| 2026-05-09 14:25 | 51.95314 | -43.39035 | 34152 ft | 450 kts | 249° |
| 2026-05-09 14:25 | 51.93531 | -43.48755 | 34141 ft | 450 kts | 249° |
| 2026-05-09 14:26 | 51.91742 | -43.58461 | 34137 ft | 449 kts | 249° |
| 2026-05-09 14:26 | 51.89946 | -43.68152 | 34129 ft | 449 kts | 249° |
| 2026-05-09 14:27 | 51.88142 | -43.77832 | 34156 ft | 449 kts | 248° |
| 2026-05-09 14:27 | 51.86331 | -43.87502 | 34120 ft | 449 kts | 248° |
| 2026-05-09 14:28 | 51.84515 | -43.97150 | 34115 ft | 448 kts | 248° |
| 2026-05-09 14:28 | 51.82692 | -44.06788 | 34122 ft | 448 kts | 248° |
| 2026-05-09 14:29 | 51.80859 | -44.16424 | 34091 ft | 449 kts | 247° |
| 2026-05-09 14:29 | 51.79020 | -44.26047 | 34085 ft | 447 kts | 247° |
| 2026-05-09 14:30 | 51.77186 | -44.35600 | 34085 ft | 445 kts | 247° |
| 2026-05-09 14:30 | 51.75346 | -44.45127 | 34075 ft | 443 kts | 247° |
| 2026-05-09 14:31 | 51.73505 | -44.54612 | 34079 ft | 443 kts | 247° |
| 2026-05-09 14:31 | 51.71665 | -44.64039 | 34073 ft | 444 kts | 246° |
| 2026-05-09 14:32 | 51.69807 | -44.73522 | 34065 ft | 444 kts | 246° |
| 2026-05-09 14:32 | 51.67940 | -44.83004 | 34048 ft | 443 kts | 246° |
| 2026-05-09 14:33 | 51.66378 | -44.90903 | 34047 ft | 441 kts | 246° |
| 2026-05-09 14:33 | 51.64516 | -45.00278 | 34045 ft | 439 kts | 246° |
| 2026-05-09 14:34 | 51.62645 | -45.09616 | 34042 ft | 438 kts | 245° |
| 2026-05-09 14:34 | 51.60762 | -45.18871 | 34036 ft | 438 kts | 245° |
| 2026-05-09 14:35 | 51.58872 | -45.28176 | 34021 ft | 437 kts | 245° |
| 2026-05-09 14:35 | 51.56991 | -45.37453 | 34014 ft | 436 kts | 245° |
| 2026-05-09 14:36 | 51.55111 | -45.46699 | 34005 ft | 435 kts | 245° |
| 2026-05-09 14:36 | 51.53224 | -45.55930 | 34033 ft | 436 kts | 245° |
| 2026-05-09 14:37 | 51.51320 | -45.65198 | 33994 ft | 438 kts | 245° |
| 2026-05-09 14:37 | 51.49413 | -45.74450 | 33998 ft | 435 kts | 245° |
| 2026-05-09 14:38 | 51.47508 | -45.83648 | 33983 ft | 434 kts | 245° |
| 2026-05-09 14:38 | 51.45600 | -45.92814 | 33975 ft | 433 kts | 245° |
| 2026-05-09 14:39 | 51.43686 | -46.01962 | 34005 ft | 433 kts | 244° |
| 2026-05-09 14:39 | 51.41767 | -46.11097 | 33990 ft | 432 kts | 244° |
| 2026-05-09 14:40 | 51.39853 | -46.20174 | 33961 ft | 429 kts | 244° |
| 2026-05-09 14:40 | 51.37942 | -46.29195 | 33953 ft | 427 kts | 244° |
| 2026-05-09 14:41 | 51.36033 | -46.38157 | 33937 ft | 425 kts | 243° |
| 2026-05-09 14:41 | 51.34120 | -46.47097 | 33952 ft | 424 kts | 243° |
| 2026-05-09 14:42 | 51.32203 | -46.56024 | 33948 ft | 424 kts | 243° |
| 2026-05-09 14:42 | 51.30278 | -46.64941 | 33937 ft | 424 kts | 243° |
| 2026-05-09 14:43 | 51.28347 | -46.73850 | 33931 ft | 424 kts | 243° |
| 2026-05-09 14:43 | 51.26424 | -46.82687 | 33922 ft | 424 kts | 243° |
| 2026-05-09 14:44 | 51.24477 | -46.91593 | 33908 ft | 425 kts | 242° |
| 2026-05-09 14:44 | 51.22520 | -47.00505 | 33900 ft | 426 kts | 242° |
| 2026-05-09 14:45 | 51.20556 | -47.09416 | 33896 ft | 426 kts | 242° |
| 2026-05-09 14:45 | 51.18587 | -47.18311 | 33903 ft | 425 kts | 242° |
| 2026-05-09 14:46 | 51.16609 | -47.27209 | 33901 ft | 427 kts | 241° |
| 2026-05-09 14:46 | 51.14617 | -47.36120 | 33887 ft | 428 kts | 241° |
| 2026-05-09 14:47 | 51.12620 | -47.45030 | 33897 ft | 427 kts | 241° |
| 2026-05-09 14:47 | 51.10618 | -47.53926 | 33880 ft | 426 kts | 240° |
| 2026-05-09 14:48 | 51.08615 | -47.62785 | 33879 ft | 425 kts | 240° |
| 2026-05-09 14:48 | 51.06608 | -47.71621 | 33863 ft | 425 kts | 240° |
| 2026-05-09 14:49 | 51.04594 | -47.80451 | 33861 ft | 425 kts | 240° |
| 2026-05-09 14:49 | 51.02575 | -47.89261 | 33896 ft | 425 kts | 240° |
| 2026-05-09 14:50 | 51.00544 | -47.98089 | 33862 ft | 426 kts | 239° |
| 2026-05-09 14:50 | 50.98507 | -48.06918 | 33860 ft | 424 kts | 239° |
| 2026-05-09 14:51 | 50.96477 | -48.15681 | 33850 ft | 423 kts | 239° |
| 2026-05-09 14:51 | 50.94444 | -48.24412 | 33852 ft | 421 kts | 239° |
| 2026-05-09 14:52 | 50.92410 | -48.33113 | 33847 ft | 421 kts | 239° |
| 2026-05-09 14:52 | 50.90367 | -48.41811 | 33847 ft | 421 kts | 239° |
| 2026-05-09 14:53 | 50.88317 | -48.50507 | 33845 ft | 422 kts | 239° |
| 2026-05-09 14:53 | 50.86260 | -48.59198 | 33837 ft | 422 kts | 239° |
| 2026-05-09 14:54 | 50.84193 | -48.67899 | 33836 ft | 423 kts | 239° |
| 2026-05-09 14:54 | 50.82117 | -48.76603 | 33836 ft | 423 kts | 239° |
| 2026-05-09 14:55 | 50.80033 | -48.85301 | 33836 ft | 424 kts | 238° |
| 2026-05-09 14:55 | 50.77941 | -48.94003 | 33836 ft | 424 kts | 238° |
| 2026-05-09 14:56 | 50.75844 | -49.02697 | 33826 ft | 423 kts | 238° |
| 2026-05-09 14:56 | 50.73741 | -49.11376 | 33830 ft | 423 kts | 238° |
| 2026-05-09 14:57 | 50.71634 | -49.20035 | 33835 ft | 422 kts | 238° |
| 2026-05-09 14:57 | 50.69525 | -49.28671 | 33843 ft | 423 kts | 238° |
| 2026-05-09 14:58 | 50.67406 | -49.37308 | 33871 ft | 423 kts | 238° |
| 2026-05-09 14:58 | 50.65277 | -49.45956 | 33838 ft | 423 kts | 238° |
| 2026-05-09 14:59 | 50.63145 | -49.54587 | 33827 ft | 422 kts | 238° |
| 2026-05-09 14:59 | 50.61014 | -49.63181 | 33828 ft | 420 kts | 237° |
| 2026-05-09 15:00 | 50.58885 | -49.71736 | 33878 ft | 419 kts | 237° |
| 2026-05-09 15:00 | 50.56754 | -49.80261 | 33836 ft | 418 kts | 237° |
| 2026-05-09 15:01 | 50.53565 | -49.92966 | 33824 ft | 415 kts | 237° |
| 2026-05-09 15:02 | 50.51438 | -50.01395 | 33824 ft | 415 kts | 237° |
| 2026-05-09 15:02 | 50.49135 | -50.09585 | 33824 ft | 403 kts | 230° |
| 2026-05-09 15:03 | 50.46382 | -50.17331 | 33856 ft | 406 kts | 232° |
| 2026-05-09 15:03 | 50.43972 | -50.25436 | 33837 ft | 412 kts | 236° |
| 2026-05-09 15:04 | 50.41808 | -50.33864 | 34051 ft | 421 kts | 237° |
| 2026-05-09 15:04 | 50.40773 | -50.38099 | 34398 ft | 421 kts | 237° |
| 2026-05-09 15:06 | 50.33416 | -50.68268 | 35827 ft | 428 kts | 237° |
| 2026-05-09 15:06 | 50.31297 | -50.76891 | 35833 ft | 422 kts | 237° |
| 2026-05-09 15:07 | 50.29178 | -50.85445 | 35839 ft | 421 kts | 237° |
| 2026-05-09 15:07 | 50.27052 | -50.93980 | 35839 ft | 421 kts | 237° |
| 2026-05-09 15:08 | 50.24918 | -51.02514 | 35845 ft | 422 kts | 237° |
| 2026-05-09 15:08 | 50.21694 | -51.15356 | 35852 ft | 424 kts | 237° |
| 2026-05-09 15:10 | 50.12998 | -51.49661 | 35956 ft | 426 kts | 236° |
| 2026-05-09 15:11 | 50.10800 | -51.58245 | 35868 ft | 427 kts | 236° |
| 2026-05-09 15:11 | 50.08602 | -51.66806 | 35872 ft | 425 kts | 236° |
| 2026-05-09 15:12 | 50.06409 | -51.75317 | 35870 ft | 423 kts | 236° |
| 2026-05-09 15:12 | 50.04215 | -51.83792 | 35878 ft | 421 kts | 236° |
| 2026-05-09 15:13 | 50.02022 | -51.92237 | 35926 ft | 421 kts | 236° |
| 2026-05-09 15:13 | 49.99953 | -52.00810 | 35889 ft | 430 kts | 241° |
| 2026-05-09 15:14 | 49.98619 | -52.10003 | 35897 ft | 439 kts | 246° |
| 2026-05-09 15:14 | 49.97400 | -52.19291 | 35898 ft | 439 kts | 246° |
| 2026-05-09 15:15 | 49.96372 | -52.27003 | 35896 ft | 439 kts | 245° |
| 2026-05-09 15:15 | 49.94907 | -52.37834 | 35952 ft | 439 kts | 246° |
| 2026-05-09 15:16 | 49.93851 | -52.45561 | 35939 ft | 441 kts | 246° |
| 2026-05-09 15:16 | 49.92568 | -52.54897 | 35917 ft | 443 kts | 247° |
| 2026-05-09 15:17 | 49.91276 | -52.64264 | 35919 ft | 444 kts | 247° |
| 2026-05-09 15:17 | 49.89974 | -52.73644 | 35915 ft | 445 kts | 247° |
| 2026-05-09 15:18 | 49.88665 | -52.83010 | 35918 ft | 445 kts | 247° |
| 2026-05-09 15:18 | 49.87346 | -52.92394 | 35923 ft | 445 kts | 247° |
| 2026-05-09 15:19 | 49.86021 | -53.01755 | 35926 ft | 445 kts | 247° |
| 2026-05-09 15:19 | 49.84689 | -53.11112 | 35979 ft | 445 kts | 247° |
| 2026-05-09 15:20 | 49.82670 | -53.25167 | 35940 ft | 446 kts | 247° |
| 2026-05-09 15:21 | 49.81379 | -53.34095 | 35947 ft | 446 kts | 247° |
| 2026-05-09 15:21 | 49.80016 | -53.43462 | 35947 ft | 446 kts | 247° |
| 2026-05-09 15:22 | 49.78645 | -53.52827 | 35951 ft | 446 kts | 247° |
| 2026-05-09 15:22 | 49.77263 | -53.62203 | 35957 ft | 447 kts | 248° |
| 2026-05-09 15:23 | 49.75874 | -53.71580 | 35963 ft | 447 kts | 248° |
| 2026-05-09 15:23 | 49.74477 | -53.80958 | 36013 ft | 447 kts | 248° |
| 2026-05-09 15:24 | 49.73065 | -53.90351 | 35970 ft | 449 kts | 248° |
| 2026-05-09 15:24 | 49.71647 | -53.99761 | 35972 ft | 450 kts | 248° |
| 2026-05-09 15:25 | 49.70226 | -54.09131 | 36001 ft | 451 kts | 249° |
| 2026-05-09 15:25 | 49.68786 | -54.18567 | 35981 ft | 452 kts | 248° |
| 2026-05-09 15:26 | 49.66606 | -54.32740 | 35964 ft | 452 kts | 248° |
| 2026-05-09 15:26 | 49.65143 | -54.42187 | 35968 ft | 452 kts | 248° |
| 2026-05-09 15:27 | 49.63675 | -54.51609 | 35970 ft | 451 kts | 248° |
| 2026-05-09 15:27 | 49.62196 | -54.61036 | 35967 ft | 453 kts | 249° |
| 2026-05-09 15:28 | 49.60708 | -54.70477 | 35958 ft | 454 kts | 249° |
| 2026-05-09 15:28 | 49.59210 | -54.79927 | 35955 ft | 453 kts | 249° |
| 2026-05-09 15:29 | 49.57708 | -54.89350 | 35956 ft | 453 kts | 249° |
| 2026-05-09 15:29 | 49.56194 | -54.98792 | 35955 ft | 453 kts | 249° |
| 2026-05-09 15:30 | 49.54674 | -55.08215 | 35962 ft | 453 kts | 249° |
| 2026-05-09 15:30 | 49.53148 | -55.17626 | 35977 ft | 453 kts | 249° |
| 2026-05-09 15:31 | 49.51610 | -55.27047 | 35982 ft | 455 kts | 250° |
| 2026-05-09 15:31 | 49.50062 | -55.36481 | 35962 ft | 455 kts | 250° |
| 2026-05-09 15:32 | 49.48505 | -55.45925 | 35964 ft | 456 kts | 249° |
| 2026-05-09 15:32 | 49.46938 | -55.55378 | 35959 ft | 456 kts | 249° |
| 2026-05-09 15:33 | 49.45363 | -55.64822 | 35961 ft | 456 kts | 249° |
| 2026-05-09 15:33 | 49.43782 | -55.74247 | 35971 ft | 456 kts | 250° |
| 2026-05-09 15:34 | 49.42193 | -55.83669 | 35962 ft | 456 kts | 250° |
| 2026-05-09 15:34 | 49.40598 | -55.93081 | 35958 ft | 455 kts | 249° |
| 2026-05-09 15:35 | 49.38994 | -56.02484 | 35959 ft | 456 kts | 250° |
| 2026-05-09 15:35 | 49.37382 | -56.11893 | 35950 ft | 456 kts | 250° |
| 2026-05-09 15:36 | 49.35763 | -56.21289 | 35966 ft | 455 kts | 250° |
| 2026-05-09 15:36 | 49.34136 | -56.30680 | 35950 ft | 455 kts | 250° |
| 2026-05-09 15:37 | 49.32502 | -56.40063 | 35949 ft | 456 kts | 250° |
| 2026-05-09 15:37 | 49.30861 | -56.49430 | 35959 ft | 455 kts | 250° |
| 2026-05-09 15:38 | 49.29212 | -56.58801 | 35948 ft | 455 kts | 250° |
| 2026-05-09 15:38 | 49.27553 | -56.68174 | 35953 ft | 456 kts | 250° |
| 2026-05-09 15:39 | 49.25889 | -56.77527 | 35952 ft | 455 kts | 250° |
| 2026-05-09 15:39 | 49.24218 | -56.86872 | 35935 ft | 455 kts | 250° |
| 2026-05-09 15:40 | 49.22542 | -56.96201 | 35952 ft | 455 kts | 250° |
| 2026-05-09 15:40 | 49.20857 | -57.05528 | 35955 ft | 455 kts | 250° |
| 2026-05-09 15:41 | 49.19165 | -57.14846 | 35953 ft | 455 kts | 250° |
| 2026-05-09 15:41 | 49.17464 | -57.24164 | 35966 ft | 455 kts | 250° |
| 2026-05-09 15:42 | 49.15757 | -57.33469 | 35989 ft | 455 kts | 250° |
| 2026-05-09 15:42 | 49.14042 | -57.42774 | 35970 ft | 455 kts | 250° |
| 2026-05-09 15:43 | 49.12317 | -57.52084 | 35965 ft | 455 kts | 250° |
| 2026-05-09 15:43 | 49.10587 | -57.61372 | 35965 ft | 455 kts | 250° |
| 2026-05-09 15:44 | 49.08850 | -57.70655 | 35969 ft | 455 kts | 250° |
| 2026-05-09 15:44 | 49.07106 | -57.79923 | 35972 ft | 454 kts | 250° |
| 2026-05-09 15:45 | 49.05357 | -57.89174 | 35982 ft | 454 kts | 250° |
| 2026-05-09 15:45 | 49.03602 | -57.98415 | 35979 ft | 454 kts | 250° |
| 2026-05-09 15:46 | 49.01839 | -58.07650 | 35987 ft | 454 kts | 250° |
| 2026-05-09 15:46 | 49.00065 | -58.16894 | 35992 ft | 454 kts | 250° |
| 2026-05-09 15:47 | 48.98287 | -58.26120 | 35998 ft | 454 kts | 250° |
| 2026-05-09 15:47 | 48.96503 | -58.35330 | 35997 ft | 454 kts | 250° |
| 2026-05-09 15:48 | 48.94926 | -58.43436 | 36004 ft | 454 kts | 250° |
| 2026-05-09 15:48 | 48.93563 | -58.50400 | 36004 ft | 454 kts | 250° |
| 2026-05-09 15:49 | 48.92195 | -58.57370 | 36009 ft | 454 kts | 250° |
| 2026-05-09 15:49 | 48.90894 | -58.63978 | 36010 ft | 454 kts | 250° |
| 2026-05-09 15:50 | 48.90007 | -58.68463 | 36012 ft | 454 kts | 250° |
| 2026-05-09 15:50 | 48.89329 | -58.71924 | 36072 ft | 450 kts | 250° |
| 2026-05-09 15:51 | 48.88490 | -58.76519 | 36021 ft | 447 kts | 254° |
| 2026-05-09 15:51 | 48.86826 | -58.85666 | 36045 ft | 458 kts | 249° |
| 2026-05-09 15:52 | 48.83945 | -58.99179 | 36011 ft | 460 kts | 249° |
| 2026-05-09 15:53 | 48.82032 | -59.08442 | 36025 ft | 459 kts | 250° |
| 2026-05-09 15:53 | 48.80159 | -59.17679 | 36026 ft | 457 kts | 250° |
| 2026-05-09 15:54 | 48.78305 | -59.26833 | 36013 ft | 455 kts | 250° |
| 2026-05-09 15:54 | 48.76540 | -59.35501 | 36016 ft | 454 kts | 250° |
| 2026-05-09 15:55 | 48.75244 | -59.41829 | 36022 ft | 453 kts | 250° |
| 2026-05-09 15:55 | 48.74239 | -59.46694 | 35995 ft | 454 kts | 250° |
| 2026-05-09 15:56 | 48.73277 | -59.51374 | 36020 ft | 452 kts | 250° |
| 2026-05-09 15:56 | 48.72167 | -59.57105 | 35964 ft | 452 kts | 251° |
| 2026-05-09 15:57 | 48.71314 | -59.61305 | 36057 ft | 449 kts | 250° |
| 2026-05-09 15:57 | 48.70367 | -59.65601 | 35928 ft | 452 kts | 249° |
| 2026-05-09 15:58 | 48.69281 | -59.70498 | 35886 ft | 452 kts | 249° |
| 2026-05-09 15:58 | 48.67784 | -59.77636 | 36008 ft | 450 kts | 250° |
| 2026-05-09 15:59 | 48.66997 | -59.81466 | 36005 ft | 450 kts | 250° |
| 2026-05-09 15:59 | 48.65559 | -59.88375 | 36059 ft | 449 kts | 250° |
| 2026-05-09 16:00 | 48.64230 | -59.94759 | 35994 ft | 453 kts | 250° |
| 2026-05-09 16:00 | 48.62619 | -60.02417 | 35959 ft | 454 kts | 250° |
| 2026-05-09 16:01 | 48.61130 | -60.09497 | 36015 ft | 454 kts | 250° |
| 2026-05-09 16:01 | 48.59878 | -60.15385 | 36022 ft | 452 kts | 250° |
| 2026-05-09 16:02 | 48.58908 | -60.19945 | 36030 ft | 453 kts | 250° |
| 2026-05-09 16:02 | 48.56845 | -60.28172 | 36057 ft | 448 kts | 249° |
| 2026-05-09 16:03 | 48.55457 | -60.34789 | 36037 ft | 452 kts | 251° |
| 2026-05-09 16:03 | 48.54031 | -60.41908 | 36031 ft | 454 kts | 251° |
| 2026-05-09 16:04 | 48.52312 | -60.50448 | 36028 ft | 456 kts | 251° |
| 2026-05-09 16:04 | 48.50938 | -60.56988 | 36028 ft | 456 kts | 250° |
| 2026-05-09 16:05 | 48.49894 | -60.61792 | 36048 ft | 456 kts | 250° |
| 2026-05-09 16:05 | 48.48576 | -60.67827 | 36038 ft | 456 kts | 250° |
| 2026-05-09 16:06 | 48.47377 | -60.73290 | 35926 ft | 458 kts | 250° |
| 2026-05-09 16:06 | 48.45937 | -60.79856 | 36112 ft | 453 kts | 250° |
| 2026-05-09 16:07 | 48.44269 | -60.87466 | 36175 ft | 451 kts | 250° |
| 2026-05-09 16:07 | 48.42462 | -60.95684 | 36066 ft | 453 kts | 250° |
| 2026-05-09 16:08 | 48.40508 | -61.04520 | 36034 ft | 453 kts | 250° |
| 2026-05-09 16:08 | 48.38520 | -61.13460 | 36026 ft | 452 kts | 250° |
| 2026-05-09 16:09 | 48.36521 | -61.22406 | 36027 ft | 451 kts | 250° |
| 2026-05-09 16:09 | 48.34505 | -61.31384 | 36030 ft | 450 kts | 250° |
| 2026-05-09 16:10 | 48.32501 | -61.40272 | 36036 ft | 449 kts | 250° |
| 2026-05-09 16:10 | 48.30505 | -61.49092 | 36028 ft | 448 kts | 250° |
| 2026-05-09 16:11 | 48.28493 | -61.57941 | 36035 ft | 447 kts | 250° |
| 2026-05-09 16:11 | 48.26478 | -61.66771 | 36030 ft | 447 kts | 250° |
| 2026-05-09 16:12 | 48.24454 | -61.75601 | 36033 ft | 447 kts | 250° |
| 2026-05-09 16:12 | 48.22425 | -61.84415 | 36036 ft | 447 kts | 250° |
| 2026-05-09 16:13 | 48.20390 | -61.93221 | 36035 ft | 447 kts | 250° |
| 2026-05-09 16:13 | 48.18346 | -62.02028 | 36046 ft | 447 kts | 250° |
| 2026-05-09 16:14 | 48.16294 | -62.10835 | 36035 ft | 448 kts | 250° |
| 2026-05-09 16:14 | 48.14237 | -62.19629 | 36035 ft | 447 kts | 250° |
| 2026-05-09 16:15 | 48.12174 | -62.28410 | 36034 ft | 447 kts | 250° |
| 2026-05-09 16:15 | 48.10105 | -62.37181 | 36037 ft | 446 kts | 250° |
| 2026-05-09 16:16 | 48.08034 | -62.45929 | 36034 ft | 446 kts | 250° |
| 2026-05-09 16:16 | 48.05961 | -62.54649 | 36038 ft | 445 kts | 250° |
| 2026-05-09 16:17 | 48.03879 | -62.63369 | 36046 ft | 445 kts | 250° |
| 2026-05-09 16:17 | 48.01795 | -62.72065 | 36036 ft | 445 kts | 250° |
| 2026-05-09 16:18 | 47.99704 | -62.80755 | 36037 ft | 444 kts | 250° |
| 2026-05-09 16:18 | 47.97613 | -62.89413 | 36038 ft | 443 kts | 250° |
| 2026-05-09 16:19 | 47.95515 | -62.98065 | 36038 ft | 443 kts | 250° |
| 2026-05-09 16:19 | 47.93414 | -63.06694 | 36038 ft | 443 kts | 250° |
| 2026-05-09 16:20 | 47.91305 | -63.15324 | 36036 ft | 443 kts | 250° |
| 2026-05-09 16:20 | 47.89192 | -63.23936 | 36036 ft | 443 kts | 249° |
| 2026-05-09 16:21 | 47.87070 | -63.32554 | 36038 ft | 443 kts | 249° |
| 2026-05-09 16:21 | 47.84942 | -63.41162 | 36030 ft | 443 kts | 249° |
| 2026-05-09 16:22 | 47.82804 | -63.49774 | 36030 ft | 443 kts | 249° |
| 2026-05-09 16:22 | 47.80663 | -63.58370 | 36033 ft | 444 kts | 249° |
| 2026-05-09 16:23 | 47.78512 | -63.66969 | 36036 ft | 444 kts | 249° |
| 2026-05-09 16:23 | 47.76354 | -63.75566 | 36030 ft | 443 kts | 249° |
| 2026-05-09 16:24 | 47.74195 | -63.84133 | 36033 ft | 443 kts | 249° |
| 2026-05-09 16:24 | 47.72031 | -63.92688 | 36043 ft | 443 kts | 249° |
| 2026-05-09 16:25 | 47.69857 | -64.01251 | 36035 ft | 443 kts | 249° |
| 2026-05-09 16:25 | 47.67674 | -64.09815 | 36032 ft | 444 kts | 249° |
| 2026-05-09 16:26 | 47.65484 | -64.18375 | 36020 ft | 444 kts | 249° |
| 2026-05-09 16:26 | 47.63289 | -64.26925 | 36028 ft | 443 kts | 249° |
| 2026-05-09 16:27 | 47.61089 | -64.35459 | 36027 ft | 443 kts | 249° |
| 2026-05-09 16:27 | 47.58881 | -64.43994 | 36022 ft | 443 kts | 249° |
| 2026-05-09 16:28 | 47.56670 | -64.52511 | 36037 ft | 443 kts | 249° |
| 2026-05-09 16:28 | 47.54452 | -64.61021 | 36024 ft | 443 kts | 249° |
| 2026-05-09 16:29 | 47.52228 | -64.69522 | 36017 ft | 443 kts | 249° |
| 2026-05-09 16:29 | 47.50000 | -64.78010 | 36019 ft | 442 kts | 249° |
| 2026-05-09 16:30 | 47.47768 | -64.86477 | 36019 ft | 442 kts | 249° |
| 2026-05-09 16:30 | 47.45533 | -64.94929 | 36013 ft | 441 kts | 249° |
| 2026-05-09 16:31 | 47.43293 | -65.03370 | 36009 ft | 441 kts | 248° |
| 2026-05-09 16:31 | 47.41047 | -65.11800 | 36000 ft | 441 kts | 249° |
| 2026-05-09 16:32 | 47.39177 | -65.18797 | 36012 ft | 440 kts | 248° |
| 2026-05-09 16:32 | 47.36543 | -65.28617 | 36008 ft | 440 kts | 248° |
| 2026-05-09 16:33 | 47.34287 | -65.36996 | 36009 ft | 440 kts | 248° |
| 2026-05-09 16:33 | 47.32022 | -65.45377 | 36007 ft | 440 kts | 248° |
| 2026-05-09 16:34 | 47.29756 | -65.53735 | 35994 ft | 439 kts | 248° |
| 2026-05-09 16:34 | 47.27485 | -65.62081 | 36006 ft | 439 kts | 248° |
| 2026-05-09 16:35 | 47.25212 | -65.70402 | 36006 ft | 438 kts | 248° |
| 2026-05-09 16:35 | 47.22933 | -65.78719 | 36024 ft | 439 kts | 248° |
| 2026-05-09 16:36 | 47.21784 | -65.82903 | 36148 ft | 442 kts | 248° |
| 2026-05-09 16:36 | 47.18322 | -65.95456 | 37108 ft | 441 kts | 248° |
| 2026-05-09 16:37 | 47.17163 | -65.99642 | 37390 ft | 442 kts | 248° |
| 2026-05-09 16:37 | 47.16006 | -66.03817 | 37744 ft | 440 kts | 248° |
| 2026-05-09 16:37 | 47.14850 | -66.07981 | 37924 ft | 443 kts | 248° |
| 2026-05-09 16:37 | 47.13678 | -66.12196 | 37969 ft | 446 kts | 248° |
| 2026-05-09 16:38 | 47.11327 | -66.20627 | 37991 ft | 444 kts | 248° |
| 2026-05-09 16:38 | 47.08999 | -66.28944 | 37999 ft | 439 kts | 248° |
| 2026-05-09 16:39 | 47.06673 | -66.37224 | 38004 ft | 438 kts | 248° |
| 2026-05-09 16:39 | 47.04345 | -66.45488 | 37982 ft | 438 kts | 248° |
| 2026-05-09 16:40 | 47.02406 | -66.52346 | 37999 ft | 439 kts | 248° |
| 2026-05-09 16:42 | 46.92956 | -66.85506 | 37998 ft | 442 kts | 248° |
| 2026-05-09 16:42 | 46.90577 | -66.93790 | 38013 ft | 442 kts | 248° |
| 2026-05-09 16:43 | 46.87889 | -67.01798 | 38000 ft | 443 kts | 237° |
| 2026-05-09 16:43 | 46.83890 | -67.08709 | 37998 ft | 446 kts | 225° |
| 2026-05-09 16:44 | 46.79015 | -67.14336 | 38007 ft | 447 kts | 220° |
| 2026-05-09 16:44 | 46.74026 | -67.19765 | 37990 ft | 446 kts | 220° |
| 2026-05-09 16:45 | 46.69067 | -67.25188 | 37994 ft | 445 kts | 220° |
| 2026-05-09 16:45 | 46.64137 | -67.30621 | 37997 ft | 444 kts | 220° |
| 2026-05-09 16:46 | 46.59222 | -67.36048 | 38003 ft | 443 kts | 220° |
| 2026-05-09 16:46 | 46.54315 | -67.41456 | 38003 ft | 443 kts | 220° |
| 2026-05-09 16:47 | 46.49408 | -67.46852 | 38003 ft | 443 kts | 220° |
| 2026-05-09 16:47 | 46.44496 | -67.52238 | 38008 ft | 443 kts | 220° |
| 2026-05-09 16:48 | 46.39579 | -67.57618 | 37985 ft | 443 kts | 220° |
| 2026-05-09 16:48 | 46.34654 | -67.62992 | 37991 ft | 443 kts | 220° |
| 2026-05-09 16:49 | 46.29733 | -67.68350 | 38010 ft | 443 kts | 220° |
| 2026-05-09 16:50 | 46.22342 | -67.76376 | 37996 ft | 443 kts | 221° |
| 2026-05-09 16:50 | 46.17416 | -67.81710 | 38007 ft | 442 kts | 220° |
| 2026-05-09 16:51 | 46.12491 | -67.87029 | 38013 ft | 442 kts | 220° |
| 2026-05-09 16:51 | 46.07566 | -67.92338 | 38008 ft | 442 kts | 220° |
| 2026-05-09 16:52 | 46.02638 | -67.97636 | 38010 ft | 442 kts | 221° |
| 2026-05-09 16:52 | 45.97703 | -68.02930 | 38013 ft | 442 kts | 220° |
| 2026-05-09 16:53 | 45.92774 | -68.08206 | 38019 ft | 442 kts | 220° |
| 2026-05-09 16:53 | 45.87837 | -68.13479 | 38001 ft | 442 kts | 221° |
| 2026-05-09 16:54 | 45.82908 | -68.18730 | 38019 ft | 441 kts | 221° |
| 2026-05-09 16:54 | 45.77983 | -68.23966 | 38030 ft | 441 kts | 221° |
| 2026-05-09 16:55 | 45.73061 | -68.29187 | 38030 ft | 440 kts | 221° |
| 2026-05-09 16:55 | 45.68139 | -68.34396 | 38029 ft | 440 kts | 221° |
| 2026-05-09 16:56 | 45.63224 | -68.39585 | 38040 ft | 439 kts | 221° |
| 2026-05-09 16:56 | 45.58317 | -68.44755 | 38053 ft | 438 kts | 221° |
| 2026-05-09 16:57 | 45.53405 | -68.49920 | 38037 ft | 438 kts | 221° |
| 2026-05-09 16:57 | 45.48499 | -68.55066 | 38031 ft | 437 kts | 221° |
| 2026-05-09 16:58 | 45.43603 | -68.60189 | 38029 ft | 436 kts | 221° |
| 2026-05-09 16:58 | 45.38711 | -68.65299 | 38031 ft | 436 kts | 221° |
| 2026-05-09 16:59 | 45.33824 | -68.70391 | 38031 ft | 435 kts | 221° |
| 2026-05-09 16:59 | 45.28943 | -68.75467 | 38027 ft | 434 kts | 221° |
| 2026-05-09 17:00 | 45.24067 | -68.80525 | 38027 ft | 434 kts | 221° |
| 2026-05-09 17:00 | 45.19195 | -68.85571 | 38027 ft | 434 kts | 221° |
| 2026-05-09 17:01 | 45.14322 | -68.90604 | 38012 ft | 433 kts | 221° |
| 2026-05-09 17:01 | 45.09455 | -68.95620 | 38017 ft | 432 kts | 221° |
| 2026-05-09 17:02 | 45.04598 | -69.00616 | 38019 ft | 432 kts | 221° |
| 2026-05-09 17:02 | 44.99736 | -69.05606 | 38010 ft | 432 kts | 221° |
| 2026-05-09 17:03 | 44.94879 | -69.10581 | 38012 ft | 431 kts | 221° |
| 2026-05-09 17:05 | 44.75434 | -69.30392 | 38006 ft | 432 kts | 221° |
| 2026-05-09 17:05 | 44.70557 | -69.35333 | 38008 ft | 432 kts | 221° |
| 2026-05-09 17:06 | 44.65684 | -69.40261 | 37984 ft | 432 kts | 221° |
| 2026-05-09 17:06 | 44.60802 | -69.45185 | 38001 ft | 432 kts | 221° |
| 2026-05-09 17:07 | 44.55922 | -69.50099 | 38003 ft | 431 kts | 221° |
| 2026-05-09 17:07 | 44.51056 | -69.54990 | 37997 ft | 430 kts | 221° |
| 2026-05-09 17:08 | 44.46194 | -69.59864 | 37985 ft | 429 kts | 221° |
| 2026-05-09 17:08 | 44.38919 | -69.67141 | 38025 ft | 428 kts | 221° |
| 2026-05-09 17:09 | 44.34074 | -69.71974 | 38028 ft | 428 kts | 221° |
| 2026-05-09 17:09 | 44.29263 | -69.76763 | 38016 ft | 428 kts | 221° |
| 2026-05-09 17:10 | 44.24576 | -69.81420 | 38035 ft | 428 kts | 221° |
| 2026-05-09 17:10 | 44.19749 | -69.86206 | 38043 ft | 429 kts | 221° |
| 2026-05-09 17:11 | 44.14899 | -69.91005 | 38036 ft | 429 kts | 221° |
| 2026-05-09 17:11 | 44.10291 | -69.95554 | 38060 ft | 429 kts | 221° |
| 2026-05-09 17:12 | 44.05449 | -70.00326 | 38065 ft | 429 kts | 221° |
| 2026-05-09 17:12 | 44.00570 | -70.05124 | 38083 ft | 430 kts | 221° |
| 2026-05-09 17:13 | 43.95653 | -70.09949 | 38068 ft | 430 kts | 221° |
| 2026-05-09 17:13 | 43.90770 | -70.14731 | 38074 ft | 430 kts | 221° |
| 2026-05-09 17:14 | 43.85887 | -70.19504 | 38069 ft | 429 kts | 221° |
| 2026-05-09 17:14 | 43.81010 | -70.24262 | 38062 ft | 429 kts | 221° |
| 2026-05-09 17:15 | 43.76130 | -70.29011 | 38066 ft | 428 kts | 221° |
| 2026-05-09 17:15 | 43.71263 | -70.33740 | 38037 ft | 428 kts | 221° |
| 2026-05-09 17:17 | 43.51752 | -70.52601 | 38054 ft | 428 kts | 220° |
| 2026-05-09 17:18 | 43.46874 | -70.57295 | 38049 ft | 427 kts | 220° |
| 2026-05-09 17:18 | 43.41917 | -70.61838 | 38045 ft | 433 kts | 212° |
| 2026-05-09 17:19 | 43.37171 | -70.64223 | 38051 ft | 439 kts | 206° |
| 2026-05-09 17:19 | 43.31389 | -70.66949 | 38043 ft | 439 kts | 206° |
| 2026-05-09 17:20 | 43.25641 | -70.69726 | 38051 ft | 438 kts | 206° |
| 2026-05-09 17:20 | 43.19902 | -70.72532 | 38034 ft | 438 kts | 206° |
| 2026-05-09 17:21 | 43.14154 | -70.75344 | 38026 ft | 438 kts | 206° |
| 2026-05-09 17:21 | 43.08410 | -70.78146 | 38029 ft | 438 kts | 206° |
| 2026-05-09 17:22 | 43.02673 | -70.80938 | 38027 ft | 438 kts | 206° |
| 2026-05-09 17:22 | 42.96920 | -70.83732 | 38007 ft | 438 kts | 206° |
| 2026-05-09 17:23 | 42.91187 | -70.86511 | 38024 ft | 437 kts | 206° |
| 2026-05-09 17:23 | 42.85468 | -70.89281 | 38041 ft | 436 kts | 206° |
| 2026-05-09 17:25 | 42.68348 | -70.97534 | 38029 ft | 435 kts | 206° |
| 2026-05-09 17:25 | 42.62634 | -71.00282 | 38027 ft | 435 kts | 206° |
| 2026-05-09 17:26 | 42.56939 | -71.03015 | 38018 ft | 434 kts | 206° |
| 2026-05-09 17:26 | 42.51240 | -71.05745 | 38027 ft | 434 kts | 206° |
| 2026-05-09 17:27 | 42.45548 | -71.08467 | 38021 ft | 434 kts | 206° |
| 2026-05-09 17:27 | 42.39846 | -71.11187 | 38006 ft | 434 kts | 206° |
| 2026-05-09 17:28 | 42.34146 | -71.13902 | 38014 ft | 434 kts | 206° |
| 2026-05-09 17:28 | 42.28450 | -71.16609 | 38001 ft | 434 kts | 206° |
| 2026-05-09 17:29 | 42.22775 | -71.19300 | 37984 ft | 434 kts | 207° |
| 2026-05-09 17:29 | 42.17070 | -71.22001 | 37993 ft | 434 kts | 207° |
| 2026-05-09 17:30 | 42.11333 | -71.24714 | 38008 ft | 435 kts | 207° |
| 2026-05-09 17:30 | 42.05654 | -71.27393 | 37980 ft | 435 kts | 207° |
| 2026-05-09 17:31 | 41.99946 | -71.30080 | 37992 ft | 435 kts | 206° |
| 2026-05-09 17:32 | 41.88524 | -71.35441 | 37680 ft | 433 kts | 206° |
| 2026-05-09 17:32 | 41.85684 | -71.36771 | 37244 ft | 430 kts | 206° |
| 2026-05-09 17:32 | 41.82878 | -71.38081 | 36808 ft | 424 kts | 206° |
| 2026-05-09 17:33 | 41.80114 | -71.39373 | 36369 ft | 419 kts | 207° |
| 2026-05-09 17:33 | 41.77383 | -71.40649 | 35915 ft | 415 kts | 207° |
| 2026-05-09 17:33 | 41.74655 | -71.41922 | 35457 ft | 411 kts | 207° |
| 2026-05-09 17:33 | 41.72027 | -71.43417 | 34971 ft | 398 kts | 218° |
| 2026-05-09 17:34 | 41.69922 | -71.45594 | 34488 ft | 382 kts | 227° |
| 2026-05-09 17:35 | 41.57985 | -71.59085 | 31530 ft | 367 kts | 225° |
| 2026-05-09 17:35 | 41.56032 | -71.61258 | 31050 ft | 364 kts | 225° |
| 2026-05-09 17:36 | 41.54092 | -71.63415 | 30586 ft | 362 kts | 225° |
| 2026-05-09 17:36 | 41.52141 | -71.65583 | 30058 ft | 360 kts | 224° |
| 2026-05-09 17:36 | 41.50248 | -71.67684 | 29552 ft | 357 kts | 224° |
| 2026-05-09 17:36 | 41.48325 | -71.69818 | 29063 ft | 354 kts | 224° |
| 2026-05-09 17:37 | 41.46439 | -71.71907 | 28572 ft | 350 kts | 224° |
| 2026-05-09 17:37 | 41.44570 | -71.73978 | 28078 ft | 347 kts | 224° |
| 2026-05-09 17:37 | 41.42744 | -71.75999 | 27621 ft | 345 kts | 224° |
| 2026-05-09 17:37 | 41.40904 | -71.78035 | 27154 ft | 343 kts | 224° |
| 2026-05-09 17:38 | 41.39072 | -71.80060 | 26685 ft | 342 kts | 224° |
| 2026-05-09 17:38 | 41.37243 | -71.82082 | 26222 ft | 342 kts | 224° |
| 2026-05-09 17:38 | 41.35417 | -71.84097 | 25751 ft | 340 kts | 224° |
| 2026-05-09 17:39 | 41.31790 | -71.88097 | 24852 ft | 337 kts | 224° |
| 2026-05-09 17:39 | 41.29987 | -71.90082 | 24399 ft | 336 kts | 224° |
| 2026-05-09 17:39 | 41.28194 | -71.92054 | 23969 ft | 334 kts | 223° |
| 2026-05-09 17:39 | 41.26411 | -71.94012 | 23604 ft | 331 kts | 223° |
| 2026-05-09 17:40 | 41.24649 | -71.95946 | 23196 ft | 327 kts | 223° |
| 2026-05-09 17:40 | 41.22909 | -71.97854 | 22818 ft | 322 kts | 223° |
| 2026-05-09 17:40 | 41.21199 | -71.99729 | 22467 ft | 317 kts | 223° |
| 2026-05-09 17:40 | 41.19504 | -72.01586 | 22125 ft | 312 kts | 223° |
| 2026-05-09 17:41 | 41.17847 | -72.03402 | 21806 ft | 307 kts | 224° |
| 2026-05-09 17:41 | 41.16208 | -72.05199 | 21504 ft | 305 kts | 224° |
| 2026-05-09 17:41 | 41.14575 | -72.06987 | 21188 ft | 304 kts | 224° |
| 2026-05-09 17:41 | 41.12944 | -72.08770 | 20861 ft | 303 kts | 224° |
| 2026-05-09 17:42 | 41.11323 | -72.10545 | 20552 ft | 300 kts | 225° |
| 2026-05-09 17:42 | 41.09984 | -72.12599 | 20231 ft | 293 kts | 240° |
| 2026-05-09 17:42 | 41.09120 | -72.15029 | 19930 ft | 292 kts | 250° |
| 2026-05-09 17:42 | 41.08471 | -72.17574 | 19618 ft | 291 kts | 251° |
| 2026-05-09 17:43 | 41.07854 | -72.20134 | 19289 ft | 291 kts | 252° |
| 2026-05-09 17:43 | 41.07241 | -72.22694 | 18993 ft | 291 kts | 252° |
| 2026-05-09 17:43 | 41.06624 | -72.25255 | 18685 ft | 292 kts | 252° |
| 2026-05-09 17:43 | 41.06003 | -72.27809 | 18388 ft | 292 kts | 251° |
| 2026-05-09 17:44 | 41.05376 | -72.30367 | 18077 ft | 292 kts | 251° |
| 2026-05-09 17:44 | 41.04745 | -72.32926 | 17739 ft | 291 kts | 251° |
| 2026-05-09 17:44 | 41.04119 | -72.35457 | 17421 ft | 288 kts | 251° |
| 2026-05-09 17:44 | 41.03500 | -72.37953 | 17089 ft | 282 kts | 251° |
| 2026-05-09 17:45 | 41.02891 | -72.40402 | 16813 ft | 278 kts | 250° |
| 2026-05-09 17:45 | 41.02288 | -72.42824 | 16524 ft | 276 kts | 250° |
| 2026-05-09 17:45 | 41.01688 | -72.45225 | 16243 ft | 274 kts | 250° |
| 2026-05-09 17:45 | 41.01091 | -72.47614 | 15957 ft | 273 kts | 250° |
| 2026-05-09 17:46 | 41.00494 | -72.49996 | 15682 ft | 272 kts | 250° |
| 2026-05-09 17:46 | 40.99898 | -72.52374 | 15392 ft | 272 kts | 250° |
| 2026-05-09 17:46 | 40.99304 | -72.54741 | 15108 ft | 272 kts | 250° |
| 2026-05-09 17:46 | 40.98708 | -72.57117 | 14822 ft | 272 kts | 249° |
| 2026-05-09 17:47 | 40.98111 | -72.59492 | 14538 ft | 272 kts | 249° |
| 2026-05-09 17:47 | 40.97513 | -72.61868 | 14275 ft | 272 kts | 250° |
| 2026-05-09 17:47 | 40.96913 | -72.64247 | 13971 ft | 273 kts | 250° |
| 2026-05-09 17:47 | 40.96312 | -72.66634 | 13664 ft | 273 kts | 249° |
| 2026-05-09 17:48 | 40.95712 | -72.69017 | 13332 ft | 273 kts | 249° |
| 2026-05-09 17:48 | 40.95111 | -72.71398 | 13036 ft | 272 kts | 249° |
| 2026-05-09 17:48 | 40.94511 | -72.73768 | 12744 ft | 271 kts | 249° |
| 2026-05-09 17:48 | 40.93914 | -72.76128 | 12445 ft | 270 kts | 249° |
| 2026-05-09 17:49 | 40.93297 | -72.78454 | 12131 ft | 263 kts | 243° |
| 2026-05-09 17:49 | 40.92278 | -72.80420 | 11919 ft | 258 kts | 226° |
| 2026-05-09 17:49 | 40.90921 | -72.81973 | 11718 ft | 258 kts | 218° |
| 2026-05-09 17:49 | 40.89461 | -72.83380 | 11491 ft | 262 kts | 217° |
| 2026-05-09 17:50 | 40.88473 | -72.84306 | 11367 ft | 264 kts | 217° |
| 2026-05-09 17:50 | 40.84977 | -72.87590 | 10879 ft | 263 kts | 216° |
| 2026-05-09 17:50 | 40.83993 | -72.88522 | 10744 ft | 263 kts | 217° |
| 2026-05-09 17:51 | 40.82012 | -72.90404 | 10490 ft | 260 kts | 216° |
| 2026-05-09 17:51 | 40.80562 | -72.91787 | 10267 ft | 255 kts | 216° |
| 2026-05-09 17:51 | 40.79144 | -72.93141 | 10042 ft | 249 kts | 216° |
| 2026-05-09 17:51 | 40.77753 | -72.94470 | 9854 ft | 244 kts | 216° |
| 2026-05-09 17:52 | 40.76394 | -72.95768 | 9659 ft | 238 kts | 216° |
| 2026-05-09 17:52 | 40.75067 | -72.97037 | 9452 ft | 234 kts | 216° |
| 2026-05-09 17:52 | 40.73752 | -72.98293 | 9263 ft | 233 kts | 216° |
| 2026-05-09 17:52 | 40.72437 | -72.99547 | 9101 ft | 234 kts | 216° |
| 2026-05-09 17:53 | 40.71120 | -73.00816 | 8866 ft | 235 kts | 216° |
| 2026-05-09 17:53 | 40.69815 | -73.02094 | 8656 ft | 231 kts | 222° |
| 2026-05-09 17:53 | 40.68929 | -73.03830 | 8517 ft | 233 kts | 244° |
| 2026-05-09 17:53 | 40.68501 | -73.05931 | 8325 ft | 243 kts | 258° |
| 2026-05-09 17:54 | 40.68444 | -73.08184 | 8134 ft | 248 kts | 264° |
| 2026-05-09 17:54 | 40.68483 | -73.10460 | 7916 ft | 248 kts | 265° |
| 2026-05-09 17:54 | 40.68528 | -73.12731 | 7717 ft | 248 kts | 265° |
| 2026-05-09 17:54 | 40.68566 | -73.14996 | 7519 ft | 247 kts | 265° |
| 2026-05-09 17:55 | 40.68596 | -73.17259 | 7316 ft | 246 kts | 265° |
| 2026-05-09 17:55 | 40.68619 | -73.19509 | 7125 ft | 245 kts | 265° |
| 2026-05-09 17:55 | 40.68637 | -73.21748 | 6932 ft | 244 kts | 265° |
| 2026-05-09 17:55 | 40.68652 | -73.23977 | 6728 ft | 242 kts | 265° |
| 2026-05-09 17:56 | 40.68666 | -73.26156 | 6695 ft | 234 kts | 264° |
| 2026-05-09 17:56 | 40.68675 | -73.28299 | 6681 ft | 235 kts | 264° |
| 2026-05-09 17:56 | 40.68682 | -73.30470 | 6532 ft | 241 kts | 264° |
| 2026-05-09 17:57 | 40.68715 | -73.34973 | 5955 ft | 247 kts | 269° |
| 2026-05-09 17:57 | 40.69278 | -73.37162 | 5589 ft | 266 kts | 297° |
| 2026-05-09 17:57 | 40.70632 | -73.38909 | 5326 ft | 280 kts | 319° |
| 2026-05-09 17:57 | 40.72428 | -73.39969 | 5036 ft | 288 kts | 339° |
| 2026-05-09 17:58 | 40.74384 | -73.40535 | 4790 ft | 285 kts | 343° |
| 2026-05-09 17:58 | 40.76224 | -73.41201 | 4465 ft | 263 kts | 325° |
| 2026-05-09 17:58 | 40.77537 | -73.42689 | 4214 ft | 242 kts | 298° |
| 2026-05-09 17:58 | 40.78394 | -73.44532 | 3953 ft | 233 kts | 294° |
| 2026-05-09 17:59 | 40.79227 | -73.46346 | 3726 ft | 229 kts | 295° |
| 2026-05-09 17:59 | 40.80043 | -73.48108 | 3542 ft | 221 kts | 295° |
| 2026-05-09 17:59 | 40.80840 | -73.49831 | 3301 ft | 218 kts | 295° |
| 2026-05-09 17:59 | 40.81627 | -73.51538 | 3055 ft | 217 kts | 296° |
| 2026-05-09 18:00 | 40.82166 | -73.53302 | 2767 ft | 201 kts | 269° |
| 2026-05-09 18:00 | 40.82077 | -73.54478 | 2649 ft | 191 kts | 253° |
| 2026-05-09 18:00 | 40.81694 | -73.56121 | 2458 ft | 186 kts | 249° |
| 2026-05-09 18:00 | 40.81277 | -73.57711 | 2193 ft | 181 kts | 248° |
| 2026-05-09 18:01 | 40.80877 | -73.59225 | 2081 ft | 169 kts | 249° |
| 2026-05-09 18:01 | 40.80492 | -73.60680 | 2023 ft | 167 kts | 248° |
| 2026-05-09 18:01 | 40.80109 | -73.62118 | 2011 ft | 166 kts | 246° |
| 2026-05-09 18:01 | 40.79414 | -73.63281 | 2006 ft | 164 kts | 218° |
| 2026-05-09 18:02 | 40.78480 | -73.64176 | 2011 ft | 167 kts | 220° |
| 2026-05-09 18:02 | 40.77565 | -73.65104 | 1993 ft | 162 kts | 218° |
| 2026-05-09 18:02 | 40.76626 | -73.65935 | 1982 ft | 160 kts | 213° |
| 2026-05-09 18:02 | 40.75697 | -73.66690 | 2011 ft | 155 kts | 213° |
| 2026-05-09 18:03 | 40.74801 | -73.67401 | 1987 ft | 148 kts | 212° |
| 2026-05-09 18:03 | 40.73898 | -73.68115 | 2004 ft | 153 kts | 212° |
| 2026-05-09 18:03 | 40.72988 | -73.68830 | 1976 ft | 151 kts | 212° |
| 2026-05-09 18:03 | 40.72052 | -73.69566 | 1748 ft | 158 kts | 212° |
| 2026-05-09 18:04 | 40.71134 | -73.70289 | 1530 ft | 148 kts | 212° |
| 2026-05-09 18:04 | 40.70291 | -73.70951 | 1368 ft | 138 kts | 212° |
| 2026-05-09 18:04 | 40.69472 | -73.71592 | 1165 ft | 130 kts | 213° |
| 2026-05-09 18:04 | 40.68687 | -73.72213 | 1014 ft | 135 kts | 212° |
| 2026-05-09 18:05 | 40.67882 | -73.72846 | 792 ft | 136 kts | 210° |
| 2026-05-09 18:05 | 40.67051 | -73.73496 | 616 ft | 138 kts | 211° |
| 2026-05-09 18:05 | 40.66229 | -73.74142 | 425 ft | 140 kts | 211° |
| 2026-05-09 18:05 | 40.65405 | -73.74795 | 266 ft | 140 kts | 211° |
| 2026-05-09 18:06 | 40.64561 | -73.75453 | 95 ft | 142 kts | 210° |
| 2026-05-09 18:06 | 40.63743 | -73.76095 | 31 ft | 128 kts | 210° |
| 2026-05-09 18:06 | 40.63099 | -73.76597 | 28 ft | 78 kts | 211° |
| 2026-05-09 18:06 | 40.62810 | -73.76821 | 27 ft | 35 kts | 210° |
| 2026-05-09 18:07 | 40.62631 | -73.76962 | 29 ft | 20 kts | 212° |
| 2026-05-09 18:07 | 40.62578 | -73.77048 | 29 ft | 9 kts | 262° |
| 2026-05-09 18:07 | 40.62577 | -73.77132 | 29 ft | 9 kts | 271° |
| 2026-05-09 18:07 | 40.62592 | -73.77206 | 29 ft | 8 kts | 302° |
| 2026-05-09 18:08 | 40.62637 | -73.77244 | 30 ft | 8 kts | 347° |
| 2026-05-09 18:08 | 40.62692 | -73.77259 | 30 ft | 8 kts | 350° |
| 2026-05-09 18:08 | 40.62745 | -73.77242 | 29 ft | 8 kts | 26° |
| 2026-05-09 18:08 | 40.62795 | -73.77205 | 28 ft | 8 kts | 30° |
| 2026-05-09 18:09 | 40.62843 | -73.77167 | 29 ft | 8 kts | 31° |
| 2026-05-09 18:09 | 40.62892 | -73.77128 | 29 ft | 8 kts | 31° |
| 2026-05-09 18:09 | 40.62941 | -73.77089 | 28 ft | 8 kts | 29° |
| 2026-05-09 18:09 | 40.62988 | -73.77104 | 28 ft | 8 kts | 307° |
| 2026-05-09 18:10 | 40.63017 | -73.77164 | 30 ft | 8 kts | 301° |
| 2026-05-09 18:10 | 40.63035 | -73.77205 | 32 ft | 8 kts | 301° |
| 2026-05-09 18:10 | 40.63073 | -73.77287 | 32 ft | 8 kts | 301° |
| 2026-05-09 18:10 | 40.63101 | -73.77348 | 32 ft | 8 kts | 301° |
| 2026-05-09 18:11 | 40.63129 | -73.77410 | 33 ft | 8 kts | 301° |
| 2026-05-09 18:11 | 40.63157 | -73.77471 | 35 ft | 7 kts | 301° |
| 2026-05-09 18:11 | 40.63181 | -73.77524 | 35 ft | 6 kts | 301° |
| 2026-05-09 18:11 | 40.63204 | -73.77575 | 34 ft | 6 kts | 300° |
| 2026-05-09 18:12 | 40.63212 | -73.77593 | 34 ft | 6 kts | 300° |
| 2026-05-09 18:12 | 40.63257 | -73.77697 | 32 ft | 17 kts | 300° |
| 2026-05-09 18:12 | 40.63314 | -73.77819 | 32 ft | 15 kts | 302° |
| 2026-05-09 18:12 | 40.63367 | -73.77939 | 29 ft | 16 kts | 298° |
| 2026-05-09 18:13 | 40.63419 | -73.78061 | 29 ft | 15 kts | 301° |
| 2026-05-09 18:13 | 40.63471 | -73.78178 | 30 ft | 15 kts | 301° |
| 2026-05-09 18:13 | 40.63524 | -73.78293 | 30 ft | 15 kts | 301° |
| 2026-05-09 18:13 | 40.63577 | -73.78408 | 33 ft | 15 kts | 301° |
| 2026-05-09 18:14 | 40.63629 | -73.78524 | 34 ft | 15 kts | 300° |
| 2026-05-09 18:14 | 40.63680 | -73.78640 | 33 ft | 15 kts | 300° |
| 2026-05-09 18:14 | 40.63733 | -73.78755 | 34 ft | 15 kts | 301° |
| 2026-05-09 18:14 | 40.63787 | -73.78874 | 31 ft | 16 kts | 301° |
| 2026-05-09 18:15 | 40.63846 | -73.79004 | 28 ft | 17 kts | 301° |
| 2026-05-09 18:15 | 40.63905 | -73.79134 | 26 ft | 17 kts | 301° |
| 2026-05-09 18:15 | 40.63964 | -73.79265 | 29 ft | 17 kts | 301° |
| 2026-05-09 18:15 | 40.64022 | -73.79392 | 27 ft | 14 kts | 300° |
| 2026-05-09 18:16 | 40.64060 | -73.79468 | 27 ft | 9 kts | 314° |
| 2026-05-09 18:16 | 40.64117 | -73.79503 | 28 ft | 9 kts | 352° |
| 2026-05-09 18:16 | 40.64181 | -73.79504 | 29 ft | 9 kts | 2° |
| 2026-05-09 18:16 | 40.64245 | -73.79500 | 29 ft | 9 kts | 3° |
| 2026-05-09 18:17 | 40.64309 | -73.79495 | 29 ft | 9 kts | 3° |
| 2026-05-09 18:17 | 40.64373 | -73.79490 | 29 ft | 9 kts | 2° |
| 2026-05-09 18:17 | 40.64436 | -73.79494 | 29 ft | 9 kts | 355° |
| 2026-05-09 18:17 | 40.64502 | -73.79502 | 29 ft | 10 kts | 355° |
| 2026-05-09 18:18 | 40.64569 | -73.79513 | 28 ft | 10 kts | 347° |
| 2026-05-09 18:18 | 40.64631 | -73.79554 | 28 ft | 10 kts | 326° |
| 2026-05-09 18:18 | 40.64689 | -73.79607 | 28 ft | 10 kts | 325° |
| 2026-05-09 18:18 | 40.64746 | -73.79659 | 28 ft | 10 kts | 325° |
| 2026-05-09 18:19 | 40.64808 | -73.79700 | 28 ft | 10 kts | 346° |
| 2026-05-09 18:19 | 40.64948 | -73.79704 | 28 ft | 10 kts | 0° |
| 2026-05-09 18:19 | 40.65016 | -73.79690 | 28 ft | 10 kts | 23° |
| 2026-05-09 18:20 | 40.65068 | -73.79630 | 28 ft | 10 kts | 53° |
| 2026-05-09 18:20 | 40.65103 | -73.79550 | 28 ft | 10 kts | 61° |
| 2026-05-09 18:20 | 40.65137 | -73.79470 | 28 ft | 10 kts | 60° |
| 2026-05-09 18:20 | 40.65171 | -73.79390 | 28 ft | 10 kts | 60° |
| 2026-05-09 18:21 | 40.65203 | -73.79309 | 28 ft | 10 kts | 69° |
| 2026-05-09 18:21 | 40.65206 | -73.79218 | 28 ft | 10 kts | 103° |
| 2026-05-09 18:21 | 40.65187 | -73.79130 | 28 ft | 10 kts | 107° |
| 2026-05-09 18:21 | 40.65166 | -73.79042 | 28 ft | 10 kts | 108° |
| 2026-05-09 18:22 | 40.65145 | -73.78955 | 28 ft | 10 kts | 105° |
| 2026-05-09 18:22 | 40.65115 | -73.78910 | 28 ft | 5 kts | 179° |
| 2026-05-09 18:22 | 40.65079 | -73.78915 | 28 ft | 5 kts | 186° |
| 2026-05-09 18:22 | 40.65043 | -73.78909 | 28 ft | 5 kts | 158° |
| 2026-05-09 18:23 | 40.65013 | -73.78882 | 28 ft | 5 kts | 147° |
| 2026-05-09 18:23 | 40.64984 | -73.78865 | 28 ft | 0 kts | 160° |
| 2026-05-09 18:27 | 40.65000 | -73.78873 | 27 ft | 6 kts | 160° |
| 2026-05-09 18:27 | 40.65050 | -73.78890 | 27 ft | 12 kts | 241° |